Wetterdaten: Montag, 06.03.2023
Datum Zeit Temp. Aussen Temp. o. S. Temp +5cm Feuchte Auss Luftdruck Regen Sonnenschein Regendauer Solar Windben Empfang
06.03.2023 00:00 3,1 C 2,8 C -0,6 C 94 % 1009,8 hPa 0,0 l/m 0 min 0 min 0 W/m 12,9 km/h (3 Bft) 55,56 %
06.03.2023 00:02 3,1 C 2,8 C -0,6 C 94 % 1009,9 hPa 0,0 l/m 0 min 0 min 0 W/m 6,4 km/h (2 Bft) 97,22 %
06.03.2023 00:04 3,1 C 2,8 C -0,6 C 94 % 1009,8 hPa 0,0 l/m 0 min 0 min 0 W/m 6,4 km/h (2 Bft) 97,92 %
06.03.2023 00:07 3,1 C 2,8 C -0,6 C 94 % 1009,7 hPa 0,0 l/m 0 min 3 min 0 W/m 6,4 km/h (2 Bft) 100,00 %
06.03.2023 00:08 3,1 C 2,8 C -0,6 C 94 % 1009,7 hPa 0,0 l/m 0 min 1 min 0 W/m 3,2 km/h (1 Bft) 100,00 %
06.03.2023 00:12 3,1 C 2,8 C -0,6 C 94 % 1009,7 hPa 0,0 l/m 0 min 4 min 0 W/m 6,4 km/h (2 Bft) 96,67 %
06.03.2023 00:18 3,1 C 2,2 C -0,6 C 94 % 1009,7 hPa 0,0 l/m 0 min 5 min 0 W/m 6,4 km/h (2 Bft) 100,00 %
06.03.2023 00:20 3,1 C 2,2 C -0,6 C 94 % 1009,7 hPa 0,0 l/m 0 min 2 min 0 W/m 6,4 km/h (2 Bft) 100,00 %
06.03.2023 00:22 3,0 C 2,2 C -0,6 C 94 % 1009,6 hPa 0,0 l/m 0 min 2 min 0 W/m 6,4 km/h (2 Bft) 93,48 %
06.03.2023 00:24 3,0 C 2,2 C -0,6 C 94 % 1009,6 hPa 0,0 l/m 0 min 2 min 0 W/m 6,4 km/h (2 Bft) 100,00 %
06.03.2023 00:26 3,0 C 2,2 C -0,6 C 94 % 1009,6 hPa 0,0 l/m 0 min 2 min 0 W/m 6,4 km/h (2 Bft) 100,00 %
06.03.2023 00:28 3,0 C 2,2 C -0,6 C 94 % 1009,6 hPa 0,0 l/m 0 min 2 min 0 W/m 12,9 km/h (3 Bft) 97,87 %
06.03.2023 00:30 2,9 C 2,2 C -0,6 C 94 % 1009,5 hPa 0,0 l/m 0 min 2 min 0 W/m 6,4 km/h (2 Bft) 95,74 %
06.03.2023 00:32 2,9 C 2,2 C -1,1 C 94 % 1009,5 hPa 0,0 l/m 0 min 2 min 0 W/m 6,4 km/h (2 Bft) 97,87 %
06.03.2023 00:34 2,9 C 2,2 C -1,1 C 94 % 1009,5 hPa 0,0 l/m 0 min 2 min 0 W/m 6,4 km/h (2 Bft) 95,74 %
06.03.2023 00:36 2,9 C 2,2 C -1,1 C 94 % 1009,5 hPa 0,0 l/m 0 min 2 min 0 W/m 6,4 km/h (2 Bft) 95,65 %
06.03.2023 00:38 2,9 C 2,2 C -1,1 C 94 % 1009,5 hPa 0,0 l/m 0 min 0 min 0 W/m 3,2 km/h (1 Bft) 95,74 %
06.03.2023 00:40 2,9 C 2,2 C -1,1 C 94 % 1009,5 hPa 0,0 l/m 0 min 0 min 0 W/m 6,4 km/h (2 Bft) 97,87 %
06.03.2023 00:42 2,9 C 2,2 C -1,1 C 94 % 1009,4 hPa 0,0 l/m 0 min 0 min 0 W/m 6,4 km/h (2 Bft) 97,92 %
06.03.2023 00:44 2,9 C 2,2 C -1,1 C 95 % 1009,4 hPa 0,0 l/m 0 min 0 min 0 W/m 9,7 km/h (2 Bft) 93,62 %
06.03.2023 00:46 2,9 C 2,2 C -1,1 C 95 % 1009,4 hPa 0,0 l/m 0 min 0 min 0 W/m 6,4 km/h (2 Bft) 93,62 %
06.03.2023 00:48 2,9 C 2,2 C -1,1 C 95 % 1009,4 hPa 0,0 l/m 0 min 0 min 0 W/m 3,2 km/h (1 Bft) 94,34 %
06.03.2023 00:50 2,9 C 2,2 C -1,1 C 95 % 1009,4 hPa 0,0 l/m 0 min 0 min 0 W/m 6,4 km/h (2 Bft) 93,48 %
06.03.2023 00:52 2,9 C 2,2 C -1,1 C 95 % 1009,4 hPa 0,0 l/m 0 min 0 min 0 W/m 12,9 km/h (3 Bft) 95,74 %
06.03.2023 00:54 2,9 C 2,2 C -1,1 C 95 % 1009,4 hPa 0,0 l/m 0 min 0 min 0 W/m 6,4 km/h (2 Bft) 93,62 %
06.03.2023 00:56 2,9 C 2,2 C -1,1 C 95 % 1009,4 hPa 0,0 l/m 0 min 0 min 0 W/m 6,4 km/h (2 Bft) 91,49 %
06.03.2023 00:58 2,8 C 2,2 C -1,1 C 94 % 1009,3 hPa 0,0 l/m 0 min 0 min 0 W/m 3,2 km/h (1 Bft) 93,62 %
06.03.2023 01:00 2,8 C 2,2 C -1,1 C 94 % 1009,4 hPa 0,0 l/m 0 min 0 min 0 W/m 6,4 km/h (2 Bft) 93,62 %
06.03.2023 01:02 2,8 C 2,2 C -1,1 C 94 % 1009,4 hPa 0,0 l/m 0 min 0 min 0 W/m 3,2 km/h (1 Bft) 89,36 %
06.03.2023 01:04 2,8 C 2,2 C -1,1 C 94 % 1009,3 hPa 0,0 l/m 0 min 0 min 0 W/m 6,4 km/h (2 Bft) 93,48 %
06.03.2023 01:06 2,8 C 2,2 C -1,1 C 95 % 1009,3 hPa 0,0 l/m 0 min 0 min 0 W/m 12,9 km/h (3 Bft) 91,49 %
06.03.2023 01:08 2,8 C 2,2 C -1,1 C 95 % 1009,3 hPa 0,0 l/m 0 min 0 min 0 W/m 6,4 km/h (2 Bft) 91,49 %
06.03.2023 01:10 2,8 C 2,2 C -1,1 C 95 % 1009,3 hPa 0,0 l/m 0 min 0 min 0 W/m 12,9 km/h (3 Bft) 91,84 %
06.03.2023 01:12 2,8 C 2,2 C -1,1 C 95 % 1009,2 hPa 0,0 l/m 0 min 0 min 0 W/m 3,2 km/h (1 Bft) 89,36 %
06.03.2023 01:14 2,8 C 2,2 C -1,1 C 95 % 1009,2 hPa 0,0 l/m 0 min 0 min 0 W/m 3,2 km/h (1 Bft) 95,74 %
06.03.2023 01:16 2,8 C 2,2 C -1,1 C 95 % 1009,2 hPa 0,0 l/m 0 min 0 min 0 W/m 12,9 km/h (3 Bft) 95,65 %
06.03.2023 01:18 2,8 C 2,2 C -1,1 C 95 % 1009,2 hPa 0,0 l/m 0 min 0 min 0 W/m 12,9 km/h (3 Bft) 95,74 %
06.03.2023 01:20 2,8 C 2,2 C -1,1 C 95 % 1009,1 hPa 0,0 l/m 0 min 0 min 0 W/m 6,4 km/h (2 Bft) 95,74 %
06.03.2023 01:22 2,8 C 2,2 C -1,1 C 95 % 1009,1 hPa 0,0 l/m 0 min 0 min 0 W/m 6,4 km/h (2 Bft) 97,14 %
06.03.2023 01:24 2,8 C 2,2 C -1,1 C 95 % 1009,1 hPa 0,0 l/m 0 min 0 min 0 W/m 6,4 km/h (2 Bft) 93,75 %
06.03.2023 01:26 2,8 C 2,2 C -1,1 C 95 % 1009,1 hPa 0,0 l/m 0 min 0 min 0 W/m 3,2 km/h (1 Bft) 95,74 %
06.03.2023 01:28 2,8 C 2,2 C -1,1 C 95 % 1009,1 hPa 0,0 l/m 0 min 0 min 0 W/m 9,7 km/h (2 Bft) 95,74 %
06.03.2023 01:30 2,8 C 2,2 C -1,1 C 95 % 1009,1 hPa 0,0 l/m 0 min 0 min 0 W/m 12,9 km/h (3 Bft) 97,87 %
06.03.2023 01:32 2,7 C 2,2 C -1,1 C 95 % 1009,1 hPa 0,0 l/m 0 min 0 min 0 W/m 12,9 km/h (3 Bft) 97,87 %
06.03.2023 01:34 2,7 C 2,2 C -1,1 C 95 % 1009,1 hPa 0,0 l/m 0 min 0 min 0 W/m 12,9 km/h (3 Bft) 97,83 %
06.03.2023 01:36 2,6 C 2,2 C -1,1 C 95 % 1009,1 hPa 0,0 l/m 0 min 0 min 0 W/m 12,9 km/h (3 Bft) 97,87 %
06.03.2023 01:38 2,6 C 1,7 C -1,1 C 95 % 1009,0 hPa 0,0 l/m 0 min 2 min 0 W/m 9,7 km/h (2 Bft) 100,00 %
06.03.2023 01:40 2,4 C 1,7 C -1,1 C 95 % 1009,0 hPa 0,2 l/m 0 min 2 min 0 W/m 6,4 km/h (2 Bft) 100,00 %
06.03.2023 01:42 2,4 C 1,7 C -1,1 C 95 % 1009,0 hPa 0,0 l/m 0 min 2 min 0 W/m 12,9 km/h (3 Bft) 97,87 %
06.03.2023 01:44 2,3 C 1,7 C -1,1 C 95 % 1008,9 hPa 0,0 l/m 0 min 0 min 0 W/m 6,4 km/h (2 Bft) 97,87 %
06.03.2023 01:46 2,3 C 1,7 C -1,1 C 95 % 1008,9 hPa 0,0 l/m 0 min 0 min 0 W/m 12,9 km/h (3 Bft) 55,56 %
06.03.2023 01:48 2,3 C 1,7 C -1,1 C 95 % 1008,9 hPa 0,0 l/m 0 min 0 min 0 W/m 6,4 km/h (2 Bft) 100,00 %
06.03.2023 01:50 2,2 C 1,7 C -1,1 C 95 % 1008,8 hPa 0,0 l/m 0 min 0 min 0 W/m 6,4 km/h (2 Bft) 100,00 %
06.03.2023 01:52 2,2 C 1,7 C -1,1 C 95 % 1008,8 hPa 0,0 l/m 0 min 0 min 0 W/m 6,4 km/h (2 Bft) 97,87 %
06.03.2023 01:54 2,2 C 1,7 C -1,1 C 95 % 1008,8 hPa 0,0 l/m 0 min 0 min 0 W/m 3,2 km/h (1 Bft) 100,00 %
06.03.2023 01:56 2,2 C 1,7 C -1,1 C 95 % 1008,8 hPa 0,0 l/m 0 min 0 min 0 W/m 3,2 km/h (1 Bft) 100,00 %
06.03.2023 01:58 2,2 C 1,7 C -1,1 C 95 % 1008,7 hPa 0,0 l/m 0 min 0 min 0 W/m 6,4 km/h (2 Bft) 93,62 %
06.03.2023 02:00 2,3 C 1,7 C -1,1 C 95 % 1008,7 hPa 0,0 l/m 0 min 0 min 0 W/m 6,4 km/h (2 Bft) 100,00 %
06.03.2023 02:02 2,3 C 1,7 C -1,1 C 95 % 1008,6 hPa 0,0 l/m 0 min 0 min 0 W/m 6,4 km/h (2 Bft) 100,00 %
06.03.2023 02:04 2,3 C 1,7 C -1,1 C 95 % 1008,6 hPa 0,0 l/m 0 min 0 min 0 W/m 6,4 km/h (2 Bft) 97,92 %
06.03.2023 02:06 2,3 C 1,7 C -1,1 C 95 % 1008,5 hPa 0,0 l/m 0 min 0 min 0 W/m 3,2 km/h (1 Bft) 100,00 %
06.03.2023 02:08 2,3 C 1,7 C -1,1 C 95 % 1008,5 hPa 0,0 l/m 0 min 0 min 0 W/m 6,4 km/h (2 Bft) 97,22 %
06.03.2023 02:10 2,3 C 1,7 C -1,1 C 95 % 1008,5 hPa 0,0 l/m 0 min 0 min 0 W/m 3,2 km/h (1 Bft) 100,00 %
06.03.2023 02:12 2,3 C 1,7 C -1,1 C 95 % 1008,5 hPa 0,0 l/m 0 min 0 min 0 W/m 3,2 km/h (1 Bft) 100,00 %
06.03.2023 02:14 2,3 C 1,7 C -1,1 C 95 % 1008,5 hPa 0,0 l/m 0 min 0 min 0 W/m 3,2 km/h (1 Bft) 100,00 %
06.03.2023 02:16 2,3 C 1,7 C -1,1 C 95 % 1008,5 hPa 0,0 l/m 0 min 0 min 0 W/m 3,2 km/h (1 Bft) 100,00 %
06.03.2023 02:18 2,3 C 1,7 C -1,1 C 95 % 1008,5 hPa 0,0 l/m 0 min 0 min 0 W/m 3,2 km/h (1 Bft) 100,00 %
06.03.2023 02:20 2,3 C 1,7 C -1,1 C 95 % 1008,5 hPa 0,0 l/m 0 min 0 min 0 W/m 3,2 km/h (1 Bft) 100,00 %
06.03.2023 02:22 2,3 C 1,7 C -1,1 C 95 % 1008,4 hPa 0,0 l/m 0 min 0 min 0 W/m 3,2 km/h (1 Bft) 97,87 %
06.03.2023 02:24 2,4 C 1,7 C -1,1 C 95 % 1008,4 hPa 0,0 l/m 0 min 0 min 0 W/m 6,4 km/h (2 Bft) 100,00 %
06.03.2023 02:26 2,4 C 1,7 C -1,1 C 95 % 1008,4 hPa 0,0 l/m 0 min 0 min 0 W/m 6,4 km/h (2 Bft) 100,00 %
06.03.2023 02:28 2,4 C 1,7 C -1,1 C 95 % 1008,4 hPa 0,0 l/m 0 min 0 min 0 W/m 3,2 km/h (1 Bft) 100,00 %
06.03.2023 02:30 2,4 C 1,7 C -1,1 C 95 % 1008,4 hPa 0,0 l/m 0 min 0 min 0 W/m 3,2 km/h (1 Bft) 97,87 %
06.03.2023 02:32 2,4 C 1,7 C -1,1 C 95 % 1008,4 hPa 0,0 l/m 0 min 0 min 0 W/m 6,4 km/h (2 Bft) 97,87 %
06.03.2023 02:34 2,4 C 1,7 C -1,1 C 95 % 1008,4 hPa 0,0 l/m 0 min 0 min 0 W/m 6,4 km/h (2 Bft) 97,87 %
06.03.2023 02:36 2,4 C 1,7 C -1,1 C 95 % 1008,3 hPa 0,0 l/m 0 min 0 min 0 W/m 6,4 km/h (2 Bft) 100,00 %
06.03.2023 02:38 2,5 C 2,2 C -1,1 C 95 % 1008,3 hPa 0,0 l/m 0 min 0 min 0 W/m 12,9 km/h (3 Bft) 56,52 %
06.03.2023 02:40 2,5 C 2,2 C -1,1 C 95 % 1008,2 hPa 0,0 l/m 0 min 0 min 0 W/m 12,9 km/h (3 Bft) 97,87 %
06.03.2023 02:42 2,5 C 2,2 C -1,1 C 95 % 1008,2 hPa 0,0 l/m 0 min 0 min 0 W/m 6,4 km/h (2 Bft) 97,87 %
06.03.2023 02:44 2,5 C 2,2 C -1,1 C 95 % 1008,2 hPa 0,0 l/m 0 min 0 min 0 W/m 6,4 km/h (2 Bft) 97,87 %
06.03.2023 02:46 2,5 C 2,2 C -1,1 C 95 % 1008,1 hPa 0,0 l/m 0 min 0 min 0 W/m 16,1 km/h (3 Bft) 97,87 %
06.03.2023 02:48 2,5 C 1,7 C -1,1 C 95 % 1008,1 hPa 0,0 l/m 0 min 0 min 0 W/m 9,7 km/h (2 Bft) 95,74 %
06.03.2023 02:50 2,5 C 1,7 C -1,1 C 95 % 1008,1 hPa 0,0 l/m 0 min 2 min 0 W/m 9,7 km/h (2 Bft) 95,65 %
06.03.2023 02:52 2,5 C 2,2 C -1,1 C 95 % 1008,1 hPa 0,0 l/m 0 min 0 min 0 W/m 6,4 km/h (2 Bft) 97,87 %
06.03.2023 02:54 2,5 C 2,2 C -1,1 C 95 % 1008,1 hPa 0,0 l/m 0 min 0 min 0 W/m 16,1 km/h (3 Bft) 93,62 %
06.03.2023 02:56 2,5 C 2,2 C -1,1 C 95 % 1008,0 hPa 0,0 l/m 0 min 0 min 0 W/m 6,4 km/h (2 Bft) 95,74 %
06.03.2023 02:58 2,5 C 2,2 C -1,1 C 95 % 1008,1 hPa 0,0 l/m 0 min 0 min 0 W/m 9,7 km/h (2 Bft) 100,00 %
06.03.2023 03:00 2,5 C 2,2 C -1,1 C 95 % 1008,1 hPa 0,0 l/m 0 min 2 min 0 W/m 9,7 km/h (2 Bft) 97,87 %
06.03.2023 03:02 2,5 C 2,2 C -1,1 C 95 % 1008,0 hPa 0,0 l/m 0 min 0 min 0 W/m 6,4 km/h (2 Bft) 97,67 %
06.03.2023 03:04 2,5 C 2,2 C -1,1 C 96 % 1008,0 hPa 0,0 l/m 0 min 0 min 0 W/m 9,7 km/h (2 Bft) 97,87 %
06.03.2023 03:06 2,5 C 2,2 C -1,1 C 96 % 1008,0 hPa 0,0 l/m 0 min 0 min 0 W/m 6,4 km/h (2 Bft) 98,28 %
06.03.2023 03:08 2,6 C 2,2 C -1,1 C 96 % 1008,0 hPa 0,0 l/m 0 min 0 min 0 W/m 6,4 km/h (2 Bft) 100,00 %
06.03.2023 03:10 2,6 C 2,2 C -1,1 C 96 % 1008,0 hPa 0,0 l/m 0 min 0 min 0 W/m 9,7 km/h (2 Bft) 100,00 %
06.03.2023 03:12 2,6 C 2,2 C -1,1 C 96 % 1008,0 hPa 0,0 l/m 0 min 0 min 0 W/m 19,3 km/h (3 Bft) 97,87 %
06.03.2023 03:14 2,6 C 2,2 C -1,1 C 96 % 1008,0 hPa 0,0 l/m 0 min 0 min 0 W/m 6,4 km/h (2 Bft) 97,87 %
06.03.2023 03:16 2,6 C 2,2 C -1,1 C 96 % 1007,9 hPa 0,0 l/m 0 min 0 min 0 W/m 3,2 km/h (1 Bft) 95,74 %
06.03.2023 03:18 2,6 C 2,2 C -1,1 C 96 % 1007,9 hPa 0,0 l/m 0 min 0 min 0 W/m 3,2 km/h (1 Bft) 97,87 %
06.03.2023 03:20 2,6 C 2,2 C -1,1 C 96 % 1007,9 hPa 0,0 l/m 0 min 0 min 0 W/m 0,0 km/h (0 Bft) 97,83 %
06.03.2023 03:22 2,6 C 2,2 C -1,1 C 96 % 1008,0 hPa 0,0 l/m 0 min 0 min 0 W/m 0,0 km/h (0 Bft) 97,87 %
06.03.2023 03:24 2,6 C 2,2 C -1,1 C 96 % 1007,9 hPa 0,0 l/m 0 min 0 min 0 W/m 0,0 km/h (0 Bft) 97,87 %
06.03.2023 03:26 2,6 C 2,2 C -1,1 C 96 % 1007,9 hPa 0,0 l/m 0 min 0 min 0 W/m 0,0 km/h (0 Bft) 95,74 %
06.03.2023 03:28 2,6 C 2,2 C -1,1 C 96 % 1007,9 hPa 0,0 l/m 0 min 0 min 0 W/m 0,0 km/h (0 Bft) 93,75 %
06.03.2023 03:30 2,6 C 2,2 C -1,1 C 96 % 1007,9 hPa 0,0 l/m 0 min 0 min 0 W/m 0,0 km/h (0 Bft) 97,87 %
06.03.2023 03:32 2,6 C 2,2 C -1,1 C 96 % 1007,9 hPa 0,0 l/m 0 min 0 min 0 W/m 0,0 km/h (0 Bft) 97,87 %
06.03.2023 03:34 2,5 C 2,2 C -1,1 C 96 % 1007,9 hPa 0,0 l/m 0 min 0 min 0 W/m 9,7 km/h (2 Bft) 97,83 %
06.03.2023 03:36 2,6 C 2,2 C -1,1 C 96 % 1007,8 hPa 0,0 l/m 0 min 0 min 0 W/m 3,2 km/h (1 Bft) 97,87 %
06.03.2023 03:38 2,6 C 2,2 C -0,6 C 96 % 1007,8 hPa 0,0 l/m 0 min 0 min 0 W/m 6,4 km/h (2 Bft) 97,92 %
06.03.2023 03:40 2,6 C 2,2 C -1,1 C 96 % 1007,9 hPa 0,0 l/m 0 min 0 min 0 W/m 9,7 km/h (2 Bft) 97,87 %
06.03.2023 03:42 2,6 C 2,2 C -1,1 C 96 % 1007,8 hPa 0,0 l/m 0 min 0 min 0 W/m 12,9 km/h (3 Bft) 97,87 %
06.03.2023 03:44 2,5 C 2,2 C -0,6 C 96 % 1007,9 hPa 0,0 l/m 0 min 0 min 0 W/m 9,7 km/h (2 Bft) 97,87 %
06.03.2023 03:46 2,6 C 2,2 C -0,6 C 96 % 1007,8 hPa 0,0 l/m 0 min 0 min 0 W/m 3,2 km/h (1 Bft) 97,87 %
06.03.2023 03:48 2,6 C 2,2 C -0,6 C 96 % 1007,8 hPa 0,0 l/m 0 min 0 min 0 W/m 6,4 km/h (2 Bft) 95,65 %
06.03.2023 03:50 2,5 C 2,2 C -1,1 C 96 % 1007,8 hPa 0,0 l/m 0 min 0 min 0 W/m 6,4 km/h (2 Bft) 100,00 %
06.03.2023 03:52 2,5 C 2,2 C -1,1 C 96 % 1007,8 hPa 0,0 l/m 0 min 0 min 0 W/m 12,9 km/h (3 Bft) 97,87 %
06.03.2023 03:54 2,5 C 2,2 C -1,1 C 96 % 1007,8 hPa 0,0 l/m 0 min 0 min 0 W/m 12,9 km/h (3 Bft) 97,87 %
06.03.2023 03:56 2,6 C 2,2 C -1,1 C 96 % 1007,8 hPa 0,0 l/m 0 min 0 min 0 W/m 12,9 km/h (3 Bft) 97,92 %
06.03.2023 03:58 2,5 C 2,2 C -0,6 C 96 % 1007,7 hPa 0,0 l/m 0 min 0 min 0 W/m 9,7 km/h (2 Bft) 95,74 %
06.03.2023 04:00 2,5 C 2,2 C -1,1 C 96 % 1007,7 hPa 0,0 l/m 0 min 0 min 0 W/m 6,4 km/h (2 Bft) 95,74 %
06.03.2023 04:02 2,5 C 2,2 C -0,6 C 96 % 1007,7 hPa 0,0 l/m 0 min 0 min 0 W/m 12,9 km/h (3 Bft) 96,97 %
06.03.2023 04:04 2,4 C 2,2 C -1,1 C 96 % 1007,7 hPa 0,0 l/m 0 min 0 min 0 W/m 6,4 km/h (2 Bft) 97,87 %
06.03.2023 04:06 2,4 C 2,2 C -1,1 C 96 % 1007,7 hPa 0,0 l/m 0 min 0 min 0 W/m 6,4 km/h (2 Bft) 95,74 %
06.03.2023 04:08 2,4 C 2,2 C -0,6 C 96 % 1007,7 hPa 0,0 l/m 0 min 0 min 0 W/m 6,4 km/h (2 Bft) 97,87 %
06.03.2023 04:10 2,4 C 2,2 C -1,1 C 96 % 1007,7 hPa 0,0 l/m 0 min 0 min 0 W/m 6,4 km/h (2 Bft) 97,83 %
06.03.2023 04:12 2,4 C 2,2 C -1,1 C 96 % 1007,7 hPa 0,0 l/m 0 min 0 min 0 W/m 16,1 km/h (3 Bft) 97,87 %
06.03.2023 04:14 2,4 C 2,2 C -1,1 C 96 % 1007,6 hPa 0,0 l/m 0 min 0 min 0 W/m 9,7 km/h (2 Bft) 97,87 %
06.03.2023 04:16 2,4 C 2,2 C -1,1 C 96 % 1007,6 hPa 0,0 l/m 0 min 0 min 0 W/m 6,4 km/h (2 Bft) 91,49 %
06.03.2023 04:18 2,4 C 2,2 C -1,1 C 96 % 1007,6 hPa 0,0 l/m 0 min 0 min 0 W/m 3,2 km/h (1 Bft) 95,74 %
06.03.2023 04:20 2,4 C 2,2 C -1,1 C 96 % 1007,6 hPa 0,0 l/m 0 min 0 min 0 W/m 6,4 km/h (2 Bft) 93,62 %
06.03.2023 04:22 2,4 C 2,2 C -0,6 C 96 % 1007,6 hPa 0,0 l/m 0 min 0 min 0 W/m 6,4 km/h (2 Bft) 95,74 %
06.03.2023 04:24 2,4 C 2,2 C -0,6 C 96 % 1007,6 hPa 0,0 l/m 0 min 0 min 0 W/m 6,4 km/h (2 Bft) 95,65 %
06.03.2023 04:26 2,4 C 2,2 C -0,6 C 96 % 1007,5 hPa 0,0 l/m 0 min 0 min 0 W/m 6,4 km/h (2 Bft) 95,74 %
06.03.2023 04:28 2,4 C 2,2 C -0,6 C 96 % 1007,5 hPa 0,0 l/m 0 min 0 min 0 W/m 6,4 km/h (2 Bft) 95,74 %
06.03.2023 04:30 2,4 C 2,2 C -0,6 C 96 % 1007,5 hPa 0,0 l/m 0 min 0 min 0 W/m 9,7 km/h (2 Bft) 95,74 %
06.03.2023 04:32 2,4 C 2,2 C -0,6 C 96 % 1007,5 hPa 0,0 l/m 0 min 0 min 0 W/m 6,4 km/h (2 Bft) 95,74 %
06.03.2023 04:34 2,4 C 2,2 C -0,6 C 96 % 1007,4 hPa 0,0 l/m 0 min 0 min 0 W/m 6,4 km/h (2 Bft) 95,74 %
06.03.2023 04:36 2,4 C 2,2 C -0,6 C 96 % 1007,4 hPa 0,0 l/m 0 min 0 min 0 W/m 6,4 km/h (2 Bft) 95,65 %
06.03.2023 04:38 2,4 C 2,2 C -0,6 C 96 % 1007,3 hPa 0,0 l/m 0 min 0 min 0 W/m 6,4 km/h (2 Bft) 93,62 %
06.03.2023 04:40 2,4 C 2,2 C -0,6 C 96 % 1007,3 hPa 0,0 l/m 0 min 0 min 0 W/m 6,4 km/h (2 Bft) 95,74 %
06.03.2023 04:42 2,4 C 2,2 C -0,6 C 96 % 1007,3 hPa 0,0 l/m 0 min 0 min 0 W/m 3,2 km/h (1 Bft) 95,74 %
06.03.2023 04:44 2,4 C 2,2 C -1,1 C 96 % 1007,2 hPa 0,0 l/m 0 min 0 min 0 W/m 6,4 km/h (2 Bft) 95,74 %
06.03.2023 04:46 2,4 C 2,2 C -1,1 C 95 % 1007,2 hPa 0,0 l/m 0 min 0 min 0 W/m 0,0 km/h (0 Bft) 97,56 %
06.03.2023 04:48 2,4 C 1,7 C -0,6 C 95 % 1007,2 hPa 0,0 l/m 0 min 0 min 0 W/m 0,0 km/h (0 Bft) 100,00 %
06.03.2023 04:50 2,4 C 2,2 C -0,6 C 95 % 1007,2 hPa 0,0 l/m 0 min 0 min 0 W/m 6,4 km/h (2 Bft) 100,00 %
06.03.2023 04:52 2,4 C 1,7 C -0,6 C 95 % 1007,2 hPa 0,0 l/m 0 min 0 min 0 W/m 6,4 km/h (2 Bft) 95,74 %
06.03.2023 04:54 2,4 C 1,7 C -0,6 C 95 % 1007,1 hPa 0,0 l/m 0 min 0 min 0 W/m 12,9 km/h (3 Bft) 100,00 %
06.03.2023 04:56 2,4 C 1,7 C -0,6 C 95 % 1007,2 hPa 0,0 l/m 0 min 0 min 0 W/m 16,1 km/h (3 Bft) 100,00 %
06.03.2023 04:58 2,4 C 2,2 C -1,1 C 95 % 1007,2 hPa 0,0 l/m 0 min 0 min 0 W/m 6,4 km/h (2 Bft) 100,00 %
06.03.2023 05:00 2,4 C 2,2 C -1,1 C 95 % 1007,2 hPa 0,0 l/m 0 min 0 min 0 W/m 6,4 km/h (2 Bft) 97,87 %
06.03.2023 05:02 2,4 C 2,2 C -1,1 C 95 % 1007,2 hPa 0,0 l/m 0 min 0 min 0 W/m 6,4 km/h (2 Bft) 100,00 %
06.03.2023 05:04 2,4 C 2,2 C -0,6 C 95 % 1007,1 hPa 0,0 l/m 0 min 0 min 0 W/m 6,4 km/h (2 Bft) 97,87 %
06.03.2023 05:06 2,4 C 2,2 C -1,1 C 95 % 1007,2 hPa 0,0 l/m 0 min 0 min 0 W/m 3,2 km/h (1 Bft) 100,00 %
06.03.2023 05:08 2,4 C 2,2 C -1,1 C 95 % 1007,1 hPa 0,0 l/m 0 min 0 min 0 W/m 12,9 km/h (3 Bft) 100,00 %
06.03.2023 05:10 2,4 C 2,2 C -1,1 C 95 % 1007,2 hPa 0,0 l/m 0 min 0 min 0 W/m 6,4 km/h (2 Bft) 97,87 %
06.03.2023 05:12 2,4 C 2,2 C -1,1 C 95 % 1007,1 hPa 0,0 l/m 0 min 0 min 0 W/m 6,4 km/h (2 Bft) 100,00 %
06.03.2023 05:17 2,5 C 2,2 C -0,6 C 95 % 1007,0 hPa 0,0 l/m 0 min 0 min 0 W/m 6,4 km/h (2 Bft) 100,00 %
06.03.2023 05:18 2,5 C 2,2 C -0,6 C 95 % 1007,0 hPa 0,0 l/m 0 min 0 min 0 W/m 3,2 km/h (1 Bft) 95,83 %
06.03.2023 05:20 2,5 C 2,2 C -0,6 C 95 % 1007,0 hPa 0,0 l/m 0 min 0 min 0 W/m 6,4 km/h (2 Bft) 97,83 %
06.03.2023 05:22 2,5 C 2,2 C -0,6 C 95 % 1007,0 hPa 0,0 l/m 0 min 0 min 0 W/m 6,4 km/h (2 Bft) 97,87 %
06.03.2023 05:24 2,5 C 2,2 C -0,6 C 95 % 1006,9 hPa 0,0 l/m 0 min 0 min 0 W/m 6,4 km/h (2 Bft) 100,00 %
06.03.2023 05:26 2,5 C 2,2 C -0,6 C 95 % 1006,9 hPa 0,0 l/m 0 min 0 min 0 W/m 6,4 km/h (2 Bft) 100,00 %
06.03.2023 05:28 2,5 C 2,2 C -0,6 C 95 % 1006,9 hPa 0,0 l/m 0 min 0 min 0 W/m 6,4 km/h (2 Bft) 97,87 %
06.03.2023 05:30 2,5 C 2,2 C -0,6 C 95 % 1006,8 hPa 0,0 l/m 0 min 0 min 0 W/m 6,4 km/h (2 Bft) 95,65 %
06.03.2023 05:32 2,5 C 2,2 C -0,6 C 95 % 1006,8 hPa 0,0 l/m 0 min 0 min 0 W/m 0,0 km/h (0 Bft) 95,74 %
06.03.2023 05:34 2,5 C 2,2 C -0,6 C 95 % 1006,8 hPa 0,0 l/m 0 min 0 min 0 W/m 0,0 km/h (0 Bft) 97,87 %
06.03.2023 05:36 2,5 C 2,2 C -0,6 C 95 % 1006,8 hPa 0,0 l/m 0 min 0 min 0 W/m 6,4 km/h (2 Bft) 97,87 %
06.03.2023 05:38 2,5 C 2,2 C -0,6 C 95 % 1006,7 hPa 0,0 l/m 0 min 0 min 0 W/m 12,9 km/h (3 Bft) 97,87 %
06.03.2023 05:40 2,5 C 2,2 C -0,6 C 95 % 1006,7 hPa 0,0 l/m 0 min 0 min 0 W/m 6,4 km/h (2 Bft) 97,87 %
06.03.2023 05:42 2,5 C 2,2 C -0,6 C 95 % 1006,7 hPa 0,0 l/m 0 min 0 min 0 W/m 6,4 km/h (2 Bft) 97,83 %
06.03.2023 05:44 2,5 C 2,2 C -0,6 C 95 % 1006,7 hPa 0,0 l/m 0 min 0 min 0 W/m 12,9 km/h (3 Bft) 97,87 %
06.03.2023 05:46 2,4 C 2,2 C -0,6 C 95 % 1006,7 hPa 0,0 l/m 0 min 0 min 0 W/m 16,1 km/h (3 Bft) 97,87 %
06.03.2023 05:48 2,4 C 2,2 C -0,6 C 95 % 1006,7 hPa 0,0 l/m 0 min 0 min 0 W/m 9,7 km/h (2 Bft) 97,87 %
06.03.2023 05:50 2,4 C 2,2 C -0,6 C 95 % 1006,7 hPa 0,0 l/m 0 min 0 min 0 W/m 6,4 km/h (2 Bft) 97,87 %
06.03.2023 05:52 2,4 C 2,2 C -0,6 C 95 % 1006,6 hPa 0,0 l/m 0 min 0 min 0 W/m 3,2 km/h (1 Bft) 97,87 %
06.03.2023 05:54 2,4 C 2,2 C -0,6 C 95 % 1006,7 hPa 0,0 l/m 0 min 0 min 0 W/m 3,2 km/h (1 Bft) 97,87 %
06.03.2023 05:56 2,4 C 2,2 C -0,6 C 95 % 1006,6 hPa 0,0 l/m 0 min 0 min 0 W/m 12,9 km/h (3 Bft) 97,83 %
06.03.2023 05:58 2,4 C 2,2 C -0,6 C 95 % 1006,7 hPa 0,0 l/m 0 min 0 min 0 W/m 6,4 km/h (2 Bft) 95,74 %
06.03.2023 06:00 2,4 C 2,2 C -0,6 C 95 % 1006,6 hPa 0,0 l/m 0 min 0 min 0 W/m 6,4 km/h (2 Bft) 95,74 %
06.03.2023 06:02 2,4 C 2,2 C -0,6 C 95 % 1006,7 hPa 0,0 l/m 0 min 0 min 0 W/m 6,4 km/h (2 Bft) 95,74 %
06.03.2023 06:04 2,4 C 2,2 C -0,6 C 95 % 1006,7 hPa 0,0 l/m 0 min 0 min 0 W/m 9,7 km/h (2 Bft) 95,74 %
06.03.2023 06:07 2,4 C 2,2 C -0,6 C 95 % 1006,7 hPa 0,0 l/m 0 min 0 min 0 W/m 9,7 km/h (2 Bft) 97,01 %
06.03.2023 06:08 2,4 C 2,2 C -1,1 C 95 % 1006,7 hPa 0,0 l/m 0 min 0 min 0 W/m 0,0 km/h (0 Bft) 92,00 %
06.03.2023 06:12 2,4 C 2,2 C -1,1 C 95 % 1006,7 hPa 0,0 l/m 0 min 0 min 0 W/m 3,2 km/h (1 Bft) 97,96 %
06.03.2023 06:14 2,4 C 1,7 C -1,1 C 95 % 1006,8 hPa 0,0 l/m 0 min 0 min 0 W/m 6,4 km/h (2 Bft) 97,87 %
06.03.2023 06:16 2,4 C 1,7 C -1,1 C 95 % 1006,8 hPa 0,0 l/m 0 min 0 min 0 W/m 3,2 km/h (1 Bft) 95,74 %
06.03.2023 06:18 2,4 C 1,7 C -1,1 C 95 % 1006,8 hPa 0,0 l/m 0 min 0 min 0 W/m 0,0 km/h (0 Bft) 95,74 %
06.03.2023 06:20 2,4 C 1,7 C -1,1 C 95 % 1006,7 hPa 0,0 l/m 0 min 0 min 0 W/m 0,0 km/h (0 Bft) 97,87 %
06.03.2023 06:22 2,4 C 1,7 C -1,1 C 95 % 1006,7 hPa 0,0 l/m 0 min 0 min 0 W/m 3,2 km/h (1 Bft) 93,62 %
06.03.2023 06:24 2,4 C 1,7 C -1,1 C 95 % 1006,7 hPa 0,0 l/m 0 min 0 min 0 W/m 6,4 km/h (2 Bft) 97,87 %
06.03.2023 06:26 2,4 C 1,7 C -1,1 C 95 % 1006,7 hPa 0,0 l/m 0 min 0 min 0 W/m 3,2 km/h (1 Bft) 97,83 %
06.03.2023 06:28 2,4 C 1,7 C -1,1 C 95 % 1006,7 hPa 0,0 l/m 0 min 0 min 0 W/m 6,4 km/h (2 Bft) 97,87 %
06.03.2023 06:30 2,3 C 1,7 C -1,1 C 95 % 1006,7 hPa 0,0 l/m 0 min 0 min 0 W/m 6,4 km/h (2 Bft) 97,87 %
06.03.2023 06:32 2,3 C 1,7 C -1,1 C 95 % 1006,7 hPa 0,0 l/m 0 min 0 min 0 W/m 6,4 km/h (2 Bft) 100,00 %
06.03.2023 06:34 2,3 C 1,7 C -1,1 C 95 % 1006,7 hPa 0,0 l/m 0 min 0 min 0 W/m 3,2 km/h (1 Bft) 100,00 %
06.03.2023 06:36 2,3 C 1,7 C -1,1 C 95 % 1006,7 hPa 0,0 l/m 0 min 0 min 0 W/m 3,2 km/h (1 Bft) 100,00 %
06.03.2023 06:38 2,3 C 1,7 C -1,1 C 95 % 1006,7 hPa 0,0 l/m 0 min 0 min 0 W/m 3,2 km/h (1 Bft) 100,00 %
06.03.2023 06:40 2,3 C 1,7 C -1,1 C 95 % 1006,7 hPa 0,0 l/m 0 min 0 min 0 W/m 3,2 km/h (1 Bft) 100,00 %
06.03.2023 06:42 2,3 C 1,7 C -1,1 C 95 % 1006,7 hPa 0,0 l/m 0 min 0 min 0 W/m 6,4 km/h (2 Bft) 100,00 %
06.03.2023 06:44 2,3 C 1,7 C -1,1 C 95 % 1006,6 hPa 0,0 l/m 0 min 0 min 0 W/m 3,2 km/h (1 Bft) 100,00 %
06.03.2023 06:46 2,3 C 1,7 C -1,1 C 95 % 1006,6 hPa 0,0 l/m 0 min 0 min 0 W/m 3,2 km/h (1 Bft) 97,87 %
06.03.2023 06:48 2,3 C 1,7 C -1,1 C 95 % 1006,6 hPa 0,0 l/m 0 min 0 min 0 W/m 3,2 km/h (1 Bft) 100,00 %
06.03.2023 06:50 2,3 C 1,7 C -1,1 C 95 % 1006,5 hPa 0,0 l/m 0 min 0 min 0 W/m 3,2 km/h (1 Bft) 100,00 %
06.03.2023 06:52 2,3 C 1,7 C -1,1 C 95 % 1006,5 hPa 0,0 l/m 0 min 0 min 0 W/m 3,2 km/h (1 Bft) 100,00 %
06.03.2023 06:54 2,3 C 1,7 C -1,1 C 95 % 1006,5 hPa 0,0 l/m 0 min 0 min 0 W/m 3,2 km/h (1 Bft) 100,00 %
06.03.2023 06:56 2,3 C 1,7 C -1,1 C 95 % 1006,5 hPa 0,0 l/m 0 min 0 min 0 W/m 3,2 km/h (1 Bft) 100,00 %
06.03.2023 06:58 2,3 C 1,7 C -1,1 C 95 % 1006,5 hPa 0,0 l/m 0 min 0 min 0 W/m 3,2 km/h (1 Bft) 100,00 %
06.03.2023 07:00 2,3 C 1,7 C -1,1 C 95 % 1006,5 hPa 0,0 l/m 0 min 0 min 0 W/m 3,2 km/h (1 Bft) 100,00 %
06.03.2023 07:02 2,3 C 1,7 C -1,1 C 95 % 1006,5 hPa 0,0 l/m 0 min 0 min 0 W/m 3,2 km/h (1 Bft) 97,87 %
06.03.2023 07:04 2,3 C 1,7 C -1,1 C 95 % 1006,5 hPa 0,0 l/m 0 min 0 min 0 W/m 9,7 km/h (2 Bft) 100,00 %
06.03.2023 07:06 2,3 C 1,7 C -1,1 C 95 % 1006,5 hPa 0,0 l/m 0 min 0 min 0 W/m 3,2 km/h (1 Bft) 100,00 %
06.03.2023 07:08 2,3 C 1,7 C -1,1 C 95 % 1006,5 hPa 0,0 l/m 0 min 0 min 0 W/m 6,4 km/h (2 Bft) 100,00 %
06.03.2023 07:10 2,3 C 1,7 C -1,1 C 95 % 1006,5 hPa 0,0 l/m 0 min 0 min 0 W/m 3,2 km/h (1 Bft) 100,00 %
06.03.2023 07:12 2,3 C 1,7 C -1,1 C 95 % 1006,5 hPa 0,0 l/m 0 min 0 min 0 W/m 6,4 km/h (2 Bft) 100,00 %
06.03.2023 07:14 2,3 C 1,7 C -1,1 C 95 % 1006,5 hPa 0,0 l/m 0 min 0 min 0 W/m 12,9 km/h (3 Bft) 97,87 %
06.03.2023 07:16 2,3 C 1,7 C -1,1 C 95 % 1006,5 hPa 0,0 l/m 0 min 0 min 0 W/m 3,2 km/h (1 Bft) 93,62 %
06.03.2023 07:18 2,2 C 1,7 C -1,1 C 95 % 1006,5 hPa 0,0 l/m 0 min 0 min 0 W/m 6,4 km/h (2 Bft) 97,87 %
06.03.2023 07:20 2,3 C 1,7 C -1,1 C 95 % 1006,5 hPa 0,0 l/m 0 min 0 min 0 W/m 3,2 km/h (1 Bft) 95,65 %
06.03.2023 07:22 2,2 C 1,7 C -1,1 C 95 % 1006,5 hPa 0,0 l/m 0 min 0 min 4 W/m 3,2 km/h (1 Bft) 95,74 %
06.03.2023 07:24 2,3 C 1,7 C -1,1 C 95 % 1006,5 hPa 0,0 l/m 0 min 0 min 5 W/m 12,9 km/h (3 Bft) 97,87 %
06.03.2023 07:26 2,2 C 1,7 C -1,1 C 95 % 1006,4 hPa 0,0 l/m 0 min 0 min 6 W/m 6,4 km/h (2 Bft) 97,87 %
06.03.2023 07:28 2,3 C 1,7 C -1,1 C 95 % 1006,4 hPa 0,0 l/m 0 min 0 min 7 W/m 6,4 km/h (2 Bft) 97,87 %
06.03.2023 07:30 2,2 C 1,7 C -1,1 C 95 % 1006,4 hPa 0,0 l/m 0 min 0 min 7 W/m 6,4 km/h (2 Bft) 97,87 %
06.03.2023 07:32 2,2 C 1,7 C -1,1 C 95 % 1006,4 hPa 0,0 l/m 0 min 0 min 8 W/m 9,7 km/h (2 Bft) 97,87 %
06.03.2023 07:34 2,2 C 1,7 C -1,1 C 95 % 1006,4 hPa 0,0 l/m 0 min 0 min 9 W/m 6,4 km/h (2 Bft) 93,48 %
06.03.2023 07:36 2,2 C 1,7 C -1,1 C 94 % 1006,4 hPa 0,0 l/m 0 min 0 min 9 W/m 3,2 km/h (1 Bft) 95,74 %
06.03.2023 07:38 2,2 C 1,7 C -1,1 C 94 % 1006,4 hPa 0,0 l/m 0 min 0 min 9 W/m 6,4 km/h (2 Bft) 95,74 %
06.03.2023 07:40 2,2 C 1,7 C -1,1 C 95 % 1006,4 hPa 0,0 l/m 0 min 0 min 11 W/m 12,9 km/h (3 Bft) 95,74 %
06.03.2023 07:42 2,2 C 1,7 C -1,1 C 95 % 1006,5 hPa 0,0 l/m 0 min 0 min 13 W/m 6,4 km/h (2 Bft) 95,74 %
06.03.2023 07:44 2,3 C 1,7 C -1,1 C 95 % 1006,4 hPa 0,0 l/m 0 min 0 min 15 W/m 6,4 km/h (2 Bft) 97,87 %
06.03.2023 07:46 2,3 C 1,7 C -1,1 C 95 % 1006,4 hPa 0,0 l/m 0 min 0 min 17 W/m 6,4 km/h (2 Bft) 95,65 %
06.03.2023 07:48 2,3 C 2,2 C -0,6 C 95 % 1006,5 hPa 0,0 l/m 0 min 0 min 18 W/m 6,4 km/h (2 Bft) 91,49 %
06.03.2023 07:50 2,3 C 2,2 C -0,6 C 95 % 1006,5 hPa 0,0 l/m 0 min 0 min 17 W/m 3,2 km/h (1 Bft) 91,49 %
06.03.2023 07:52 2,3 C 2,2 C -0,6 C 95 % 1006,4 hPa 0,0 l/m 0 min 0 min 17 W/m 3,2 km/h (1 Bft) 93,62 %
06.03.2023 07:54 2,3 C 2,2 C -0,6 C 94 % 1006,4 hPa 0,0 l/m 0 min 0 min 19 W/m 12,9 km/h (3 Bft) 93,62 %
06.03.2023 07:56 2,3 C 2,2 C -0,6 C 94 % 1006,5 hPa 0,0 l/m 0 min 0 min 21 W/m 12,9 km/h (3 Bft) 89,36 %
06.03.2023 07:58 2,3 C 2,2 C -0,6 C 94 % 1006,5 hPa 0,0 l/m 0 min 0 min 25 W/m 6,4 km/h (2 Bft) 93,62 %
06.03.2023 08:00 2,3 C 2,2 C -0,6 C 94 % 1006,5 hPa 0,0 l/m 0 min 0 min 31 W/m 6,4 km/h (2 Bft) 93,48 %
06.03.2023 08:02 2,3 C 2,2 C -0,6 C 94 % 1006,4 hPa 0,0 l/m 0 min 0 min 35 W/m 6,4 km/h (2 Bft) 93,62 %
06.03.2023 08:04 2,4 C 2,2 C -0,6 C 94 % 1006,4 hPa 0,0 l/m 0 min 0 min 38 W/m 0,0 km/h (0 Bft) 89,36 %
06.03.2023 08:06 2,4 C 2,2 C -0,6 C 94 % 1006,5 hPa 0,0 l/m 0 min 0 min 38 W/m 0,0 km/h (0 Bft) 88,14 %
06.03.2023 08:08 2,4 C 2,2 C -0,6 C 94 % 1006,5 hPa 0,0 l/m 0 min 0 min 37 W/m 12,9 km/h (3 Bft) 85,71 %
06.03.2023 08:10 2,4 C 2,2 C -0,6 C 94 % 1006,6 hPa 0,0 l/m 0 min 0 min 36 W/m 16,1 km/h (3 Bft) 93,62 %
06.03.2023 08:12 2,3 C 2,2 C -0,6 C 94 % 1006,5 hPa 0,0 l/m 0 min 0 min 35 W/m 9,7 km/h (2 Bft) 89,36 %
06.03.2023 08:14 2,3 C 2,2 C -0,6 C 94 % 1006,5 hPa 0,0 l/m 0 min 0 min 38 W/m 19,3 km/h (3 Bft) 86,96 %
06.03.2023 08:16 2,3 C 2,2 C -0,6 C 94 % 1006,5 hPa 0,0 l/m 0 min 0 min 40 W/m 9,7 km/h (2 Bft) 45,45 %
06.03.2023 08:18 2,4 C 2,2 C -0,6 C 94 % 1006,5 hPa 0,0 l/m 0 min 0 min 42 W/m 6,4 km/h (2 Bft) 38,00 %
06.03.2023 08:20 2,4 C 2,2 C -0,6 C 94 % 1006,5 hPa 0,0 l/m 0 min 0 min 44 W/m 16,1 km/h (3 Bft) 58,70 %
06.03.2023 08:22 2,4 C 2,2 C -0,6 C 94 % 1006,5 hPa 0,0 l/m 0 min 0 min 43 W/m 16,1 km/h (3 Bft) 64,86 %
06.03.2023 08:24 2,4 C 2,2 C -0,6 C 94 % 1006,6 hPa 0,0 l/m 0 min 0 min 41 W/m 19,3 km/h (3 Bft) 59,57 %
06.03.2023 08:26 2,4 C 2,2 C -0,6 C 94 % 1006,5 hPa 0,0 l/m 0 min 0 min 39 W/m 12,9 km/h (3 Bft) 71,74 %
06.03.2023 08:28 2,4 C 2,2 C -0,6 C 94 % 1006,5 hPa 0,0 l/m 0 min 0 min 41 W/m 6,4 km/h (2 Bft) 85,11 %
06.03.2023 08:30 2,4 C 2,2 C -0,6 C 94 % 1006,5 hPa 0,0 l/m 0 min 0 min 42 W/m 6,4 km/h (2 Bft) 91,49 %
06.03.2023 08:32 2,5 C 2,2 C -0,6 C 94 % 1006,5 hPa 0,0 l/m 0 min 0 min 38 W/m 16,1 km/h (3 Bft) 100,00 %
06.03.2023 08:34 2,5 C 2,2 C -0,6 C 94 % 1006,5 hPa 0,0 l/m 0 min 0 min 33 W/m 16,1 km/h (3 Bft) 100,00 %
06.03.2023 08:36 2,5 C 2,2 C -0,6 C 94 % 1006,5 hPa 0,0 l/m 0 min 0 min 36 W/m 12,9 km/h (3 Bft) 98,00 %
06.03.2023 08:38 2,5 C 2,2 C -0,6 C 94 % 1006,5 hPa 0,0 l/m 0 min 0 min 39 W/m 12,9 km/h (3 Bft) 100,00 %
06.03.2023 08:40 2,6 C 2,2 C -0,6 C 94 % 1006,5 hPa 0,0 l/m 0 min 0 min 39 W/m 6,4 km/h (2 Bft) 97,87 %
06.03.2023 08:42 2,6 C 2,2 C -0,6 C 94 % 1006,5 hPa 0,0 l/m 0 min 0 min 49 W/m 12,9 km/h (3 Bft) 97,87 %
06.03.2023 08:44 2,6 C 2,2 C -0,6 C 94 % 1006,5 hPa 0,0 l/m 0 min 0 min 61 W/m 12,9 km/h (3 Bft) 100,00 %
06.03.2023 08:46 2,6 C 2,2 C -0,6 C 94 % 1006,5 hPa 0,0 l/m 0 min 0 min 68 W/m 16,1 km/h (3 Bft) 95,74 %
06.03.2023 08:48 2,6 C 2,8 C -0,6 C 94 % 1006,4 hPa 0,0 l/m 0 min 0 min 64 W/m 9,7 km/h (2 Bft) 97,83 %
06.03.2023 08:50 2,6 C 2,8 C -0,6 C 94 % 1006,4 hPa 0,0 l/m 0 min 0 min 71 W/m 12,9 km/h (3 Bft) 97,87 %
06.03.2023 08:52 2,7 C 2,8 C -0,6 C 94 % 1006,5 hPa 0,0 l/m 0 min 0 min 69 W/m 6,4 km/h (2 Bft) 95,74 %
06.03.2023 08:54 2,7 C 2,8 C -0,6 C 94 % 1006,5 hPa 0,0 l/m 0 min 0 min 78 W/m 9,7 km/h (2 Bft) 97,87 %
06.03.2023 08:56 2,7 C 2,8 C 0,0 C 94 % 1006,4 hPa 0,0 l/m 0 min 0 min 78 W/m 12,9 km/h (3 Bft) 97,87 %
06.03.2023 08:58 2,7 C 2,8 C 0,0 C 94 % 1006,5 hPa 0,0 l/m 0 min 0 min 76 W/m 12,9 km/h (3 Bft) 100,00 %
06.03.2023 09:00 2,8 C 2,8 C 0,0 C 94 % 1006,5 hPa 0,0 l/m 0 min 0 min 78 W/m 12,9 km/h (3 Bft) 100,00 %
06.03.2023 09:02 2,8 C 2,8 C 0,0 C 94 % 1006,4 hPa 0,0 l/m 0 min 0 min 82 W/m 16,1 km/h (3 Bft) 100,00 %
06.03.2023 09:04 2,8 C 2,8 C 0,0 C 94 % 1006,3 hPa 0,0 l/m 0 min 0 min 88 W/m 12,9 km/h (3 Bft) 97,87 %
06.03.2023 09:06 2,8 C 2,8 C 0,0 C 94 % 1006,4 hPa 0,0 l/m 0 min 0 min 93 W/m 12,9 km/h (3 Bft) 100,00 %
06.03.2023 09:08 2,8 C 2,8 C 0,0 C 94 % 1006,4 hPa 0,0 l/m 0 min 0 min 107 W/m 19,3 km/h (3 Bft) 100,00 %
06.03.2023 09:10 2,8 C 2,8 C 0,0 C 94 % 1006,4 hPa 0,0 l/m 0 min 0 min 115 W/m 22,5 km/h (4 Bft) 93,62 %
06.03.2023 09:12 2,8 C 3,3 C 0,0 C 94 % 1006,4 hPa 0,0 l/m 0 min 0 min 126 W/m 16,1 km/h (3 Bft) 100,00 %
06.03.2023 09:14 2,8 C 3,3 C 0,0 C 94 % 1006,4 hPa 0,0 l/m 0 min 0 min 130 W/m 6,4 km/h (2 Bft) 97,83 %
06.03.2023 09:16 2,9 C 3,3 C 0,0 C 94 % 1006,5 hPa 0,0 l/m 0 min 0 min 122 W/m 6,4 km/h (2 Bft) 100,00 %
06.03.2023 09:18 3,0 C 3,3 C 0,0 C 94 % 1006,4 hPa 0,0 l/m 0 min 0 min 129 W/m 16,1 km/h (3 Bft) 100,00 %
06.03.2023 09:20 3,0 C 3,3 C 0,0 C 94 % 1006,4 hPa 0,0 l/m 0 min 0 min 123 W/m 9,7 km/h (2 Bft) 100,00 %
06.03.2023 09:22 3,1 C 3,3 C 0,0 C 94 % 1006,4 hPa 0,0 l/m 0 min 0 min 121 W/m 16,1 km/h (3 Bft) 97,87 %
06.03.2023 09:24 3,1 C 3,3 C 0,0 C 94 % 1006,4 hPa 0,0 l/m 0 min 0 min 116 W/m 16,1 km/h (3 Bft) 97,87 %
06.03.2023 09:26 3,1 C 3,3 C 0,0 C 93 % 1006,4 hPa 0,0 l/m 0 min 0 min 120 W/m 12,9 km/h (3 Bft) 97,14 %
06.03.2023 09:28 3,1 C 3,3 C 0,0 C 93 % 1006,4 hPa 0,0 l/m 0 min 0 min 110 W/m 22,5 km/h (4 Bft) 100,00 %
06.03.2023 09:30 3,1 C 3,3 C 0,0 C 93 % 1006,3 hPa 0,0 l/m 0 min 0 min 93 W/m 19,3 km/h (3 Bft) 100,00 %
06.03.2023 09:32 3,1 C 2,8 C 0,0 C 93 % 1006,3 hPa 0,0 l/m 0 min 0 min 92 W/m 16,1 km/h (3 Bft) 100,00 %
06.03.2023 09:34 3,0 C 2,8 C 0,0 C 93 % 1006,3 hPa 0,0 l/m 0 min 0 min 88 W/m 22,5 km/h (4 Bft) 93,62 %
06.03.2023 09:36 3,0 C 2,8 C 0,0 C 93 % 1006,3 hPa 0,0 l/m 0 min 0 min 89 W/m 12,9 km/h (3 Bft) 95,74 %
06.03.2023 09:38 3,0 C 2,8 C 0,0 C 93 % 1006,4 hPa 0,0 l/m 0 min 0 min 99 W/m 12,9 km/h (3 Bft) 98,00 %
06.03.2023 09:40 3,1 C 3,3 C 0,0 C 93 % 1006,4 hPa 0,0 l/m 0 min 0 min 101 W/m 16,1 km/h (3 Bft) 97,87 %
06.03.2023 09:42 3,1 C 3,3 C 0,0 C 93 % 1006,4 hPa 0,0 l/m 0 min 0 min 106 W/m 12,9 km/h (3 Bft) 97,87 %
06.03.2023 09:44 3,1 C 3,3 C 0,0 C 93 % 1006,4 hPa 0,0 l/m 0 min 0 min 100 W/m 12,9 km/h (3 Bft) 97,87 %
06.03.2023 09:46 3,1 C 3,3 C 0,0 C 93 % 1006,3 hPa 0,0 l/m 0 min 0 min 96 W/m 12,9 km/h (3 Bft) 95,65 %
06.03.2023 09:48 3,2 C 3,3 C 0,0 C 93 % 1006,3 hPa 0,0 l/m 0 min 0 min 90 W/m 12,9 km/h (3 Bft) 97,87 %
06.03.2023 09:50 3,1 C 3,3 C 0,0 C 93 % 1006,4 hPa 0,0 l/m 0 min 0 min 83 W/m 12,9 km/h (3 Bft) 97,87 %
06.03.2023 09:52 3,2 C 3,3 C 0,0 C 93 % 1006,3 hPa 0,0 l/m 0 min 0 min 77 W/m 9,7 km/h (2 Bft) 97,87 %
06.03.2023 09:54 3,2 C 3,3 C 0,0 C 93 % 1006,3 hPa 0,0 l/m 0 min 0 min 66 W/m 12,9 km/h (3 Bft) 89,36 %
06.03.2023 09:56 3,2 C 2,8 C 0,0 C 93 % 1006,4 hPa 0,0 l/m 0 min 0 min 53 W/m 9,7 km/h (2 Bft) 97,87 %
06.03.2023 09:58 3,2 C 2,8 C 0,0 C 93 % 1006,3 hPa 0,0 l/m 0 min 0 min 50 W/m 12,9 km/h (3 Bft) 95,74 %
06.03.2023 10:00 3,2 C 2,8 C 0,0 C 92 % 1006,4 hPa 0,0 l/m 0 min 0 min 58 W/m 12,9 km/h (3 Bft) 97,83 %
06.03.2023 10:02 3,2 C 2,8 C 0,0 C 92 % 1006,4 hPa 0,0 l/m 0 min 0 min 72 W/m 6,4 km/h (2 Bft) 97,87 %
06.03.2023 10:04 3,2 C 2,8 C 0,0 C 92 % 1006,4 hPa 0,0 l/m 0 min 0 min 73 W/m 12,9 km/h (3 Bft) 100,00 %
06.03.2023 10:06 3,2 C 2,8 C 0,0 C 92 % 1006,3 hPa 0,0 l/m 0 min 0 min 57 W/m 6,4 km/h (2 Bft) 97,87 %
06.03.2023 10:08 3,2 C 2,8 C 0,0 C 92 % 1006,5 hPa 0,0 l/m 0 min 0 min 48 W/m 6,4 km/h (2 Bft) 97,87 %
06.03.2023 10:10 3,2 C 2,8 C 0,0 C 92 % 1006,5 hPa 0,0 l/m 0 min 0 min 42 W/m 6,4 km/h (2 Bft) 95,74 %
06.03.2023 10:12 3,2 C 2,8 C 0,0 C 92 % 1006,4 hPa 0,0 l/m 0 min 0 min 48 W/m 9,7 km/h (2 Bft) 97,87 %
06.03.2023 10:14 3,2 C 3,3 C 0,0 C 92 % 1006,4 hPa 0,0 l/m 0 min 0 min 81 W/m 9,7 km/h (2 Bft) 95,65 %
06.03.2023 10:16 3,3 C 3,3 C 0,0 C 92 % 1006,5 hPa 0,0 l/m 0 min 0 min 131 W/m 12,9 km/h (3 Bft) 100,00 %
06.03.2023 10:18 3,3 C 3,3 C 0,0 C 92 % 1006,5 hPa 0,0 l/m 0 min 2 min 98 W/m 16,1 km/h (3 Bft) 97,87 %
06.03.2023 10:20 3,3 C 3,3 C 0,0 C 92 % 1006,5 hPa 0,0 l/m 0 min 2 min 72 W/m 6,4 km/h (2 Bft) 89,36 %
06.03.2023 10:22 3,3 C 3,3 C 0,0 C 92 % 1006,5 hPa 0,2 l/m 0 min 2 min 88 W/m 12,9 km/h (3 Bft) 95,74 %
06.03.2023 10:24 3,3 C 3,3 C 0,0 C 92 % 1006,4 hPa 0,0 l/m 0 min 2 min 103 W/m 16,1 km/h (3 Bft) 93,62 %
06.03.2023 10:26 3,3 C 3,3 C 0,0 C 92 % 1006,4 hPa 0,0 l/m 0 min 2 min 90 W/m 16,1 km/h (3 Bft) 95,74 %
06.03.2023 10:28 3,3 C 3,3 C 0,0 C 92 % 1006,5 hPa 0,0 l/m 0 min 0 min 112 W/m 6,4 km/h (2 Bft) 93,48 %
06.03.2023 10:30 3,3 C 3,3 C 0,0 C 92 % 1006,5 hPa 0,0 l/m 0 min 0 min 152 W/m 12,9 km/h (3 Bft) 97,87 %
06.03.2023 10:32 3,3 C 4,4 C 0,0 C 92 % 1006,5 hPa 0,0 l/m 2 min 0 min 255 W/m 16,1 km/h (3 Bft) 93,62 %
06.03.2023 10:34 3,4 C 5,0 C 0,6 C 92 % 1006,5 hPa 0,0 l/m 2 min 0 min 294 W/m 12,9 km/h (3 Bft) 97,87 %
06.03.2023 10:36 3,6 C 5,0 C 0,6 C 93 % 1006,5 hPa 0,0 l/m 2 min 0 min 249 W/m 12,9 km/h (3 Bft) 97,87 %
06.03.2023 10:38 3,6 C 5,0 C 0,6 C 93 % 1006,5 hPa 0,0 l/m 0 min 0 min 209 W/m 9,7 km/h (2 Bft) 55,32 %
06.03.2023 10:40 3,7 C 5,0 C 0,6 C 93 % 1006,5 hPa 0,0 l/m 0 min 0 min 176 W/m 16,1 km/h (3 Bft) 95,74 %
06.03.2023 10:42 3,7 C 4,4 C 0,6 C 93 % 1006,5 hPa 0,0 l/m 0 min 0 min 162 W/m 12,9 km/h (3 Bft) 93,48 %
06.03.2023 10:44 3,7 C 4,4 C 0,6 C 93 % 1006,5 hPa 0,0 l/m 0 min 0 min 194 W/m 12,9 km/h (3 Bft) 95,74 %
06.03.2023 10:46 3,7 C 4,4 C 0,6 C 93 % 1006,5 hPa 0,0 l/m 0 min 0 min 190 W/m 12,9 km/h (3 Bft) 97,87 %
06.03.2023 10:48 3,8 C 4,4 C 0,6 C 93 % 1006,5 hPa 0,0 l/m 0 min 0 min 144 W/m 9,7 km/h (2 Bft) 97,87 %
06.03.2023 10:50 3,8 C 3,9 C 0,6 C 93 % 1006,5 hPa 0,0 l/m 0 min 0 min 137 W/m 16,1 km/h (3 Bft) 95,74 %
06.03.2023 10:52 3,8 C 3,9 C 0,6 C 92 % 1006,5 hPa 0,0 l/m 0 min 0 min 121 W/m 9,7 km/h (2 Bft) 95,74 %
06.03.2023 10:54 3,8 C 3,9 C 0,6 C 92 % 1006,4 hPa 0,0 l/m 0 min 0 min 116 W/m 16,1 km/h (3 Bft) 95,65 %
06.03.2023 10:56 3,7 C 3,9 C 0,6 C 92 % 1006,5 hPa 0,0 l/m 0 min 0 min 122 W/m 12,9 km/h (3 Bft) 95,74 %
06.03.2023 10:58 3,8 C 3,9 C 0,6 C 92 % 1006,5 hPa 0,0 l/m 0 min 0 min 134 W/m 9,7 km/h (2 Bft) 93,62 %
06.03.2023 11:00 3,8 C 3,9 C 0,6 C 92 % 1006,5 hPa 0,0 l/m 0 min 0 min 156 W/m 6,4 km/h (2 Bft) 91,49 %
06.03.2023 11:02 3,8 C 3,9 C 0,6 C 92 % 1006,5 hPa 0,0 l/m 0 min 0 min 145 W/m 19,3 km/h (3 Bft) 91,49 %
06.03.2023 11:04 3,8 C 3,9 C 0,6 C 92 % 1006,5 hPa 0,0 l/m 0 min 0 min 141 W/m 12,9 km/h (3 Bft) 97,87 %
06.03.2023 11:06 3,8 C 3,9 C 0,6 C 92 % 1006,5 hPa 0,0 l/m 0 min 0 min 170 W/m 12,9 km/h (3 Bft) 97,87 %
06.03.2023 11:08 3,8 C 3,9 C 0,6 C 92 % 1006,5 hPa 0,0 l/m 0 min 0 min 156 W/m 12,9 km/h (3 Bft) 95,65 %
06.03.2023 11:10 3,8 C 3,9 C 0,6 C 92 % 1006,5 hPa 0,0 l/m 0 min 2 min 111 W/m 19,3 km/h (3 Bft) 97,87 %
06.03.2023 11:12 3,7 C 3,3 C 0,6 C 92 % 1006,5 hPa 0,0 l/m 0 min 2 min 116 W/m 16,1 km/h (3 Bft) 95,74 %
06.03.2023 11:14 3,7 C 3,3 C 0,0 C 92 % 1006,5 hPa 0,0 l/m 0 min 2 min 96 W/m 9,7 km/h (2 Bft) 97,87 %
06.03.2023 11:16 3,7 C 3,3 C 0,0 C 92 % 1006,5 hPa 0,0 l/m 0 min 0 min 109 W/m 6,4 km/h (2 Bft) 97,87 %
06.03.2023 11:18 3,7 C 3,3 C 0,0 C 92 % 1006,5 hPa 0,0 l/m 0 min 0 min 105 W/m 9,7 km/h (2 Bft) 100,00 %
06.03.2023 11:20 3,7 C 3,9 C 0,0 C 92 % 1006,5 hPa 0,0 l/m 0 min 0 min 111 W/m 6,4 km/h (2 Bft) 100,00 %
06.03.2023 11:22 3,7 C 3,9 C 0,0 C 92 % 1006,5 hPa 0,0 l/m 0 min 0 min 128 W/m 12,9 km/h (3 Bft) 100,00 %
06.03.2023 11:24 3,7 C 3,9 C 0,6 C 92 % 1006,5 hPa 0,0 l/m 0 min 0 min 162 W/m 12,9 km/h (3 Bft) 100,00 %
06.03.2023 11:26 3,7 C 3,9 C 0,0 C 92 % 1006,5 hPa 0,0 l/m 0 min 0 min 149 W/m 12,9 km/h (3 Bft) 100,00 %
06.03.2023 11:28 3,6 C 3,9 C 0,6 C 92 % 1006,5 hPa 0,0 l/m 0 min 0 min 135 W/m 12,9 km/h (3 Bft) 95,74 %
06.03.2023 11:30 3,6 C 3,9 C 0,6 C 92 % 1006,5 hPa 0,0 l/m 0 min 0 min 124 W/m 12,9 km/h (3 Bft) 100,00 %
06.03.2023 11:32 3,6 C 3,9 C 0,6 C 92 % 1006,5 hPa 0,0 l/m 0 min 0 min 150 W/m 12,9 km/h (3 Bft) 100,00 %
06.03.2023 11:34 3,6 C 3,9 C 0,6 C 92 % 1006,5 hPa 0,0 l/m 0 min 0 min 145 W/m 12,9 km/h (3 Bft) 95,74 %
06.03.2023 11:36 3,6 C 3,9 C 0,6 C 92 % 1006,5 hPa 0,0 l/m 0 min 0 min 109 W/m 16,1 km/h (3 Bft) 100,00 %
06.03.2023 11:38 3,6 C 3,3 C 0,6 C 92 % 1006,5 hPa 0,0 l/m 0 min 0 min 96 W/m 12,9 km/h (3 Bft) 97,87 %
06.03.2023 11:40 3,6 C 3,3 C 0,6 C 92 % 1006,5 hPa 0,0 l/m 0 min 0 min 72 W/m 6,4 km/h (2 Bft) 95,74 %
06.03.2023 11:42 3,6 C 3,3 C 0,6 C 93 % 1006,5 hPa 0,0 l/m 0 min 0 min 94 W/m 12,9 km/h (3 Bft) 93,62 %
06.03.2023 11:44 3,6 C 3,3 C 0,6 C 93 % 1006,5 hPa 0,0 l/m 0 min 0 min 72 W/m 16,1 km/h (3 Bft) 97,87 %
06.03.2023 11:46 3,6 C 3,3 C 0,6 C 93 % 1006,6 hPa 0,0 l/m 0 min 0 min 65 W/m 16,1 km/h (3 Bft) 95,74 %
06.03.2023 11:48 3,6 C 3,3 C 0,6 C 93 % 1006,6 hPa 0,0 l/m 0 min 0 min 87 W/m 9,7 km/h (2 Bft) 97,83 %
06.03.2023 11:50 3,6 C 3,3 C 0,6 C 92 % 1006,6 hPa 0,0 l/m 0 min 0 min 80 W/m 12,9 km/h (3 Bft) 97,87 %
06.03.2023 11:52 3,6 C 3,3 C 0,6 C 92 % 1006,6 hPa 0,0 l/m 0 min 0 min 82 W/m 6,4 km/h (2 Bft) 95,74 %
06.03.2023 11:54 3,6 C 3,3 C 0,6 C 92 % 1006,6 hPa 0,0 l/m 0 min 0 min 82 W/m 12,9 km/h (3 Bft) 97,87 %
06.03.2023 11:56 3,6 C 3,3 C 0,6 C 92 % 1006,6 hPa 0,0 l/m 0 min 0 min 90 W/m 16,1 km/h (3 Bft) 95,74 %
06.03.2023 11:58 3,6 C 3,3 C 0,6 C 92 % 1006,6 hPa 0,0 l/m 0 min 0 min 101 W/m 9,7 km/h (2 Bft) 97,87 %
06.03.2023 12:00 3,6 C 3,9 C 0,6 C 92 % 1006,6 hPa 0,0 l/m 0 min 0 min 119 W/m 9,7 km/h (2 Bft) 95,74 %
06.03.2023 12:02 3,7 C 3,9 C 0,6 C 92 % 1006,6 hPa 0,0 l/m 0 min 0 min 117 W/m 9,7 km/h (2 Bft) 95,65 %
06.03.2023 12:04 3,7 C 3,9 C 0,6 C 92 % 1006,6 hPa 0,0 l/m 0 min 0 min 91 W/m 12,9 km/h (3 Bft) 97,87 %
06.03.2023 12:07 3,7 C 3,3 C 0,6 C 92 % 1006,7 hPa 0,0 l/m 0 min 0 min 72 W/m 12,9 km/h (3 Bft) 97,18 %
06.03.2023 12:08 3,6 C 3,3 C 0,6 C 92 % 1006,7 hPa 0,0 l/m 0 min 0 min 75 W/m 16,1 km/h (3 Bft) 100,00 %
06.03.2023 12:12 3,7 C 3,3 C 0,6 C 92 % 1006,7 hPa 0,0 l/m 0 min 0 min 76 W/m 16,1 km/h (3 Bft) 100,00 %
06.03.2023 12:14 3,7 C 3,3 C 0,6 C 92 % 1006,7 hPa 0,0 l/m 0 min 0 min 100 W/m 6,4 km/h (2 Bft) 100,00 %
06.03.2023 12:16 3,7 C 3,9 C 0,6 C 92 % 1006,7 hPa 0,0 l/m 0 min 0 min 133 W/m 12,9 km/h (3 Bft) 100,00 %
06.03.2023 12:18 3,7 C 4,4 C 0,6 C 92 % 1006,7 hPa 0,0 l/m 0 min 0 min 211 W/m 12,9 km/h (3 Bft) 100,00 %
06.03.2023 12:20 3,8 C 5,6 C 1,7 C 92 % 1006,7 hPa 0,0 l/m 2 min 0 min 330 W/m 12,9 km/h (3 Bft) 100,00 %
06.03.2023 12:22 3,9 C 6,1 C 1,7 C 92 % 1006,6 hPa 0,0 l/m 2 min 0 min 337 W/m 12,9 km/h (3 Bft) 97,87 %
06.03.2023 12:24 4,1 C 6,7 C 2,2 C 92 % 1006,6 hPa 0,0 l/m 2 min 0 min 359 W/m 12,9 km/h (3 Bft) 95,74 %
06.03.2023 12:26 4,2 C 6,7 C 2,2 C 92 % 1006,6 hPa 0,0 l/m 2 min 0 min 335 W/m 12,9 km/h (3 Bft) 97,87 %
06.03.2023 12:28 4,3 C 6,7 C 2,8 C 92 % 1006,6 hPa 0,0 l/m 2 min 0 min 389 W/m 6,4 km/h (2 Bft) 100,00 %
06.03.2023 12:30 4,6 C 7,2 C 2,8 C 92 % 1006,6 hPa 0,0 l/m 2 min 0 min 311 W/m 6,4 km/h (2 Bft) 100,00 %
06.03.2023 12:32 4,7 C 7,2 C 2,8 C 92 % 1006,6 hPa 0,0 l/m 2 min 0 min 365 W/m 12,9 km/h (3 Bft) 97,87 %
06.03.2023 12:34 4,8 C 6,7 C 2,8 C 91 % 1006,5 hPa 0,0 l/m 2 min 0 min 307 W/m 12,9 km/h (3 Bft) 100,00 %
06.03.2023 12:36 4,8 C 6,1 C 2,8 C 91 % 1006,5 hPa 0,0 l/m 0 min 0 min 250 W/m 12,9 km/h (3 Bft) 100,00 %
06.03.2023 12:38 4,9 C 6,1 C 2,8 C 90 % 1006,5 hPa 0,0 l/m 2 min 0 min 271 W/m 16,1 km/h (3 Bft) 95,74 %
06.03.2023 12:40 4,9 C 6,1 C 2,2 C 90 % 1006,5 hPa 0,0 l/m 0 min 0 min 252 W/m 19,3 km/h (3 Bft) 100,00 %
06.03.2023 12:42 4,9 C 6,1 C 2,2 C 90 % 1006,4 hPa 0,0 l/m 0 min 0 min 253 W/m 9,7 km/h (2 Bft) 100,00 %
06.03.2023 12:44 4,9 C 6,1 C 2,2 C 89 % 1006,4 hPa 0,0 l/m 0 min 0 min 243 W/m 12,9 km/h (3 Bft) 97,87 %
06.03.2023 12:46 4,9 C 6,1 C 2,2 C 89 % 1006,5 hPa 0,0 l/m 0 min 0 min 208 W/m 9,7 km/h (2 Bft) 100,00 %
06.03.2023 12:48 4,9 C 6,1 C 2,2 C 89 % 1006,4 hPa 0,0 l/m 0 min 0 min 172 W/m 16,1 km/h (3 Bft) 97,87 %
06.03.2023 12:50 4,9 C 5,6 C 2,2 C 89 % 1006,5 hPa 0,0 l/m 0 min 0 min 169 W/m 12,9 km/h (3 Bft) 97,87 %
06.03.2023 12:52 4,9 C 5,6 C 2,2 C 88 % 1006,4 hPa 0,0 l/m 0 min 0 min 166 W/m 12,9 km/h (3 Bft) 100,00 %
06.03.2023 12:54 4,8 C 5,6 C 2,2 C 88 % 1006,5 hPa 0,0 l/m 0 min 0 min 171 W/m 6,4 km/h (2 Bft) 97,87 %
06.03.2023 12:56 4,8 C 5,6 C 2,2 C 88 % 1006,5 hPa 0,0 l/m 0 min 0 min 167 W/m 9,7 km/h (2 Bft) 93,48 %
06.03.2023 12:58 4,8 C 5,0 C 1,7 C 87 % 1006,3 hPa 0,0 l/m 0 min 0 min 177 W/m 9,7 km/h (2 Bft) 97,87 %
06.03.2023 13:00 4,8 C 5,6 C 2,2 C 87 % 1006,2 hPa 0,0 l/m 0 min 0 min 187 W/m 12,9 km/h (3 Bft) 95,74 %
06.03.2023 13:02 4,8 C 5,6 C 2,2 C 87 % 1006,3 hPa 0,0 l/m 0 min 0 min 206 W/m 12,9 km/h (3 Bft) 93,62 %
06.03.2023 13:04 4,8 C 5,6 C 2,2 C 87 % 1006,3 hPa 0,0 l/m 0 min 0 min 220 W/m 6,4 km/h (2 Bft) 95,74 %
06.03.2023 13:06 4,8 C 5,6 C 2,2 C 87 % 1006,2 hPa 0,0 l/m 0 min 0 min 230 W/m 12,9 km/h (3 Bft) 95,74 %
06.03.2023 13:08 4,9 C 5,6 C 2,2 C 87 % 1006,3 hPa 0,0 l/m 0 min 0 min 238 W/m 12,9 km/h (3 Bft) 95,74 %
06.03.2023 13:10 4,9 C 5,6 C 2,2 C 87 % 1006,2 hPa 0,0 l/m 0 min 0 min 261 W/m 16,1 km/h (3 Bft) 97,83 %
06.03.2023 13:12 5,0 C 5,6 C 2,2 C 87 % 1006,2 hPa 0,0 l/m 2 min 0 min 278 W/m 9,7 km/h (2 Bft) 97,87 %
06.03.2023 13:14 5,1 C 5,6 C 2,2 C 87 % 1006,2 hPa 0,0 l/m 0 min 0 min 267 W/m 12,9 km/h (3 Bft) 95,74 %
06.03.2023 13:16 5,1 C 6,1 C 2,2 C 87 % 1006,2 hPa 0,0 l/m 0 min 0 min 232 W/m 9,7 km/h (2 Bft) 95,74 %
06.03.2023 13:18 5,1 C 5,6 C 2,2 C 87 % 1006,1 hPa 0,0 l/m 0 min 0 min 196 W/m 6,4 km/h (2 Bft) 91,49 %
06.03.2023 13:20 5,2 C 5,6 C 2,2 C 87 % 1006,2 hPa 0,0 l/m 0 min 0 min 145 W/m 16,1 km/h (3 Bft) 93,62 %
06.03.2023 13:22 5,1 C 5,6 C 2,2 C 87 % 1006,1 hPa 0,0 l/m 0 min 0 min 117 W/m 19,3 km/h (3 Bft) 97,87 %
06.03.2023 13:24 5,1 C 5,0 C 1,7 C 86 % 1006,1 hPa 0,0 l/m 0 min 0 min 108 W/m 16,1 km/h (3 Bft) 97,83 %
06.03.2023 13:26 5,1 C 5,0 C 1,7 C 87 % 1006,0 hPa 0,0 l/m 0 min 0 min 110 W/m 12,9 km/h (3 Bft) 97,87 %
06.03.2023 13:28 5,0 C 5,0 C 1,7 C 87 % 1006,1 hPa 0,0 l/m 0 min 0 min 114 W/m 3,2 km/h (1 Bft) 93,62 %
06.03.2023 13:30 5,0 C 6,1 C 1,7 C 87 % 1006,1 hPa 0,0 l/m 0 min 0 min 123 W/m 12,9 km/h (3 Bft) 91,49 %
06.03.2023 13:32 5,0 C 7,2 C 1,7 C 87 % 1006,1 hPa 0,0 l/m 0 min 0 min 205 W/m 12,9 km/h (3 Bft) 89,36 %
06.03.2023 13:34 5,1 C 10,0 C 2,2 C 88 % 1006,0 hPa 0,0 l/m 2 min 0 min 556 W/m 6,4 km/h (2 Bft) 95,74 %
06.03.2023 13:36 5,3 C 11,7 C 2,2 C 88 % 1006,0 hPa 0,0 l/m 2 min 0 min 570 W/m 6,4 km/h (2 Bft) 95,65 %
06.03.2023 13:38 5,4 C 10,6 C 2,2 C 88 % 1006,0 hPa 0,0 l/m 2 min 0 min 575 W/m 16,1 km/h (3 Bft) 93,62 %
06.03.2023 13:40 5,6 C 8,9 C 2,2 C 88 % 1006,0 hPa 0,0 l/m 2 min 0 min 301 W/m 9,7 km/h (2 Bft) 93,62 %
06.03.2023 13:42 5,6 C 7,8 C 2,2 C 87 % 1005,9 hPa 0,0 l/m 0 min 0 min 139 W/m 6,4 km/h (2 Bft) 95,74 %
06.03.2023 13:44 5,6 C 6,7 C 2,2 C 87 % 1005,9 hPa 0,0 l/m 0 min 0 min 147 W/m 19,3 km/h (3 Bft) 95,74 %
06.03.2023 13:46 5,4 C 6,1 C 2,2 C 86 % 1005,9 hPa 0,0 l/m 0 min 0 min 156 W/m 12,9 km/h (3 Bft) 93,62 %
06.03.2023 13:48 5,3 C 5,6 C 2,2 C 86 % 1005,9 hPa 0,0 l/m 0 min 0 min 145 W/m 12,9 km/h (3 Bft) 95,74 %
06.03.2023 13:50 5,2 C 5,6 C 1,7 C 86 % 1005,8 hPa 0,0 l/m 0 min 0 min 149 W/m 16,1 km/h (3 Bft) 93,48 %
06.03.2023 13:52 5,2 C 6,7 C 1,7 C 86 % 1005,8 hPa 0,0 l/m 0 min 0 min 172 W/m 16,1 km/h (3 Bft) 95,74 %
06.03.2023 13:54 5,2 C 8,3 C 2,2 C 86 % 1005,9 hPa 0,0 l/m 2 min 0 min 427 W/m 16,1 km/h (3 Bft) 93,62 %
06.03.2023 13:56 5,3 C 8,3 C 2,2 C 86 % 1005,9 hPa 0,0 l/m 2 min 0 min 433 W/m 12,9 km/h (3 Bft) 93,62 %
06.03.2023 13:58 5,4 C 9,4 C 2,2 C 86 % 1005,8 hPa 0,0 l/m 2 min 0 min 461 W/m 16,1 km/h (3 Bft) 93,62 %
06.03.2023 14:00 5,6 C 9,4 C 2,2 C 86 % 1005,8 hPa 0,0 l/m 2 min 0 min 515 W/m 19,3 km/h (3 Bft) 95,74 %
06.03.2023 14:02 5,7 C 10,0 C 2,8 C 85 % 1005,7 hPa 0,0 l/m 2 min 0 min 504 W/m 19,3 km/h (3 Bft) 93,62 %
06.03.2023 14:04 5,8 C 9,4 C 2,8 C 85 % 1005,8 hPa 0,0 l/m 2 min 0 min 479 W/m 16,1 km/h (3 Bft) 93,48 %
06.03.2023 14:06 5,9 C 9,4 C 2,8 C 85 % 1005,8 hPa 0,0 l/m 2 min 0 min 454 W/m 12,9 km/h (3 Bft) 93,62 %
06.03.2023 14:08 5,9 C 8,3 C 2,8 C 84 % 1005,7 hPa 0,0 l/m 2 min 0 min 396 W/m 16,1 km/h (3 Bft) 95,74 %
06.03.2023 14:10 6,0 C 8,3 C 2,8 C 84 % 1005,8 hPa 0,0 l/m 2 min 0 min 401 W/m 12,9 km/h (3 Bft) 95,74 %
06.03.2023 14:12 5,9 C 7,8 C 2,8 C 84 % 1005,8 hPa 0,0 l/m 2 min 0 min 286 W/m 16,1 km/h (3 Bft) 93,62 %
06.03.2023 14:14 5,9 C 7,2 C 2,8 C 84 % 1005,8 hPa 0,0 l/m 0 min 0 min 210 W/m 6,4 km/h (2 Bft) 82,98 %
06.03.2023 14:16 5,9 C 7,2 C 2,8 C 84 % 1005,8 hPa 0,0 l/m 0 min 0 min 213 W/m 12,9 km/h (3 Bft) 67,39 %
06.03.2023 14:18 5,9 C 6,7 C 2,2 C 84 % 1005,8 hPa 0,0 l/m 0 min 0 min 202 W/m 12,9 km/h (3 Bft) 91,49 %
06.03.2023 14:20 5,8 C 6,7 C 2,2 C 84 % 1005,8 hPa 0,0 l/m 2 min 0 min 260 W/m 12,9 km/h (3 Bft) 93,62 %
06.03.2023 14:22 5,8 C 6,7 C 2,2 C 84 % 1005,8 hPa 0,0 l/m 2 min 0 min 327 W/m 22,5 km/h (4 Bft) 95,74 %
06.03.2023 14:24 5,7 C 6,7 C 2,2 C 84 % 1005,7 hPa 0,0 l/m 2 min 0 min 250 W/m 16,1 km/h (3 Bft) 95,74 %
06.03.2023 14:26 5,7 C 6,7 C 2,2 C 84 % 1005,7 hPa 0,0 l/m 2 min 0 min 260 W/m 12,9 km/h (3 Bft) 97,87 %
06.03.2023 14:28 5,7 C 6,7 C 2,2 C 84 % 1005,7 hPa 0,0 l/m 0 min 0 min 227 W/m 16,1 km/h (3 Bft) 97,87 %
06.03.2023 14:30 5,7 C 6,7 C 2,2 C 84 % 1005,7 hPa 0,0 l/m 0 min 0 min 186 W/m 9,7 km/h (2 Bft) 97,83 %
06.03.2023 14:32 5,6 C 6,7 C 2,2 C 84 % 1005,7 hPa 0,0 l/m 0 min 0 min 193 W/m 12,9 km/h (3 Bft) 97,87 %
06.03.2023 14:34 5,6 C 7,2 C 2,2 C 84 % 1005,6 hPa 0,0 l/m 2 min 0 min 294 W/m 19,3 km/h (3 Bft) 97,87 %
06.03.2023 14:36 5,7 C 7,8 C 2,8 C 84 % 1005,5 hPa 0,0 l/m 2 min 0 min 339 W/m 12,9 km/h (3 Bft) 95,74 %
06.03.2023 14:38 5,8 C 8,3 C 2,8 C 85 % 1005,6 hPa 0,0 l/m 2 min 0 min 344 W/m 16,1 km/h (3 Bft) 97,87 %
06.03.2023 14:40 5,8 C 7,8 C 2,8 C 84 % 1005,5 hPa 0,0 l/m 2 min 0 min 366 W/m 16,1 km/h (3 Bft) 97,87 %
06.03.2023 14:42 5,8 C 7,8 C 2,8 C 84 % 1005,6 hPa 0,0 l/m 2 min 0 min 376 W/m 25,7 km/h (4 Bft) 97,87 %
06.03.2023 14:44 5,8 C 7,8 C 2,8 C 83 % 1005,5 hPa 0,0 l/m 2 min 0 min 374 W/m 12,9 km/h (3 Bft) 95,65 %
06.03.2023 14:46 5,9 C 7,8 C 2,8 C 83 % 1005,4 hPa 0,0 l/m 2 min 0 min 394 W/m 16,1 km/h (3 Bft) 100,00 %
06.03.2023 14:48 5,9 C 8,3 C 2,8 C 83 % 1005,4 hPa 0,0 l/m 2 min 0 min 428 W/m 22,5 km/h (4 Bft) 100,00 %
06.03.2023 14:50 6,0 C 8,9 C 2,8 C 83 % 1005,5 hPa 0,0 l/m 2 min 0 min 439 W/m 12,9 km/h (3 Bft) 97,87 %
06.03.2023 14:52 6,1 C 8,3 C 2,8 C 83 % 1005,5 hPa 0,0 l/m 2 min 0 min 406 W/m 16,1 km/h (3 Bft) 97,87 %
06.03.2023 14:54 6,2 C 8,3 C 2,8 C 83 % 1005,5 hPa 0,0 l/m 2 min 0 min 384 W/m 19,3 km/h (3 Bft) 97,87 %
06.03.2023 14:56 6,2 C 8,3 C 2,8 C 83 % 1005,4 hPa 0,0 l/m 2 min 0 min 327 W/m 12,9 km/h (3 Bft) 100,00 %
06.03.2023 14:58 6,3 C 8,3 C 2,8 C 83 % 1005,5 hPa 0,0 l/m 2 min 0 min 377 W/m 16,1 km/h (3 Bft) 100,00 %
06.03.2023 15:00 6,3 C 8,3 C 2,8 C 83 % 1005,4 hPa 0,0 l/m 2 min 0 min 369 W/m 29,0 km/h (5 Bft) 97,87 %
06.03.2023 15:02 6,3 C 7,8 C 2,8 C 82 % 1005,4 hPa 0,0 l/m 2 min 0 min 355 W/m 25,7 km/h (4 Bft) 100,00 %
06.03.2023 15:04 6,2 C 7,2 C 2,8 C 81 % 1005,4 hPa 0,0 l/m 2 min 0 min 312 W/m 22,5 km/h (4 Bft) 97,87 %
06.03.2023 15:06 6,2 C 7,2 C 2,8 C 82 % 1005,4 hPa 0,0 l/m 2 min 0 min 311 W/m 12,9 km/h (3 Bft) 100,00 %
06.03.2023 15:08 6,2 C 7,2 C 2,8 C 82 % 1005,4 hPa 0,0 l/m 2 min 0 min 326 W/m 19,3 km/h (3 Bft) 100,00 %
06.03.2023 15:10 6,1 C 7,2 C 2,8 C 81 % 1005,3 hPa 0,0 l/m 2 min 0 min 342 W/m 12,9 km/h (3 Bft) 100,00 %
06.03.2023 15:12 6,1 C 7,2 C 2,8 C 82 % 1005,3 hPa 0,0 l/m 2 min 0 min 335 W/m 12,9 km/h (3 Bft) 100,00 %
06.03.2023 15:14 6,1 C 7,2 C 2,8 C 82 % 1005,3 hPa 0,0 l/m 2 min 0 min 256 W/m 22,5 km/h (4 Bft) 97,87 %
06.03.2023 15:16 6,1 C 7,2 C 2,8 C 82 % 1005,2 hPa 0,0 l/m 2 min 0 min 270 W/m 6,4 km/h (2 Bft) 100,00 %
06.03.2023 15:18 6,1 C 7,2 C 2,8 C 82 % 1005,2 hPa 0,0 l/m 2 min 0 min 310 W/m 16,1 km/h (3 Bft) 100,00 %
06.03.2023 15:20 6,1 C 7,8 C 2,8 C 81 % 1005,2 hPa 0,0 l/m 2 min 0 min 336 W/m 9,7 km/h (2 Bft) 100,00 %
06.03.2023 15:22 6,2 C 7,8 C 2,8 C 82 % 1005,2 hPa 0,0 l/m 2 min 0 min 282 W/m 19,3 km/h (3 Bft) 97,87 %
06.03.2023 15:24 6,2 C 7,2 C 2,8 C 81 % 1005,2 hPa 0,0 l/m 2 min 0 min 219 W/m 12,9 km/h (3 Bft) 100,00 %
06.03.2023 15:26 6,1 C 6,7 C 2,8 C 82 % 1005,1 hPa 0,0 l/m 2 min 0 min 229 W/m 25,7 km/h (4 Bft) 100,00 %
06.03.2023 15:28 6,1 C 6,7 C 2,8 C 81 % 1005,1 hPa 0,0 l/m 2 min 0 min 237 W/m 19,3 km/h (3 Bft) 97,87 %
06.03.2023 15:30 6,1 C 7,2 C 2,8 C 82 % 1005,1 hPa 0,0 l/m 2 min 0 min 260 W/m 16,1 km/h (3 Bft) 97,87 %
06.03.2023 15:32 6,1 C 7,2 C 2,8 C 82 % 1005,1 hPa 0,0 l/m 2 min 0 min 206 W/m 12,9 km/h (3 Bft) 97,87 %
06.03.2023 15:34 6,1 C 7,2 C 2,8 C 82 % 1005,1 hPa 0,0 l/m 2 min 0 min 217 W/m 16,1 km/h (3 Bft) 97,87 %
06.03.2023 15:36 6,2 C 7,2 C 2,8 C 82 % 1005,1 hPa 0,0 l/m 2 min 0 min 258 W/m 12,9 km/h (3 Bft) 95,65 %
06.03.2023 15:38 6,2 C 7,2 C 2,8 C 82 % 1005,2 hPa 0,0 l/m 0 min 0 min 186 W/m 12,9 km/h (3 Bft) 97,87 %
06.03.2023 15:40 6,2 C 7,2 C 2,8 C 82 % 1005,2 hPa 0,0 l/m 2 min 0 min 211 W/m 25,7 km/h (4 Bft) 97,87 %
06.03.2023 15:42 6,2 C 6,7 C 2,8 C 82 % 1005,2 hPa 0,0 l/m 2 min 0 min 200 W/m 12,9 km/h (3 Bft) 97,87 %
06.03.2023 15:44 6,1 C 6,7 C 2,8 C 82 % 1005,2 hPa 0,0 l/m 2 min 0 min 207 W/m 6,4 km/h (2 Bft) 97,87 %
06.03.2023 15:46 6,1 C 6,7 C 2,8 C 82 % 1005,2 hPa 0,0 l/m 2 min 0 min 228 W/m 12,9 km/h (3 Bft) 97,87 %
06.03.2023 15:48 6,0 C 6,7 C 2,2 C 82 % 1005,2 hPa 0,0 l/m 2 min 0 min 264 W/m 19,3 km/h (3 Bft) 97,87 %
06.03.2023 15:50 6,0 C 7,2 C 2,2 C 82 % 1005,2 hPa 0,0 l/m 2 min 0 min 293 W/m 19,3 km/h (3 Bft) 97,83 %
06.03.2023 15:52 6,0 C 7,2 C 2,2 C 82 % 1005,1 hPa 0,0 l/m 2 min 0 min 297 W/m 6,4 km/h (2 Bft) 97,87 %
06.03.2023 15:54 6,1 C 7,2 C 2,2 C 82 % 1005,1 hPa 0,0 l/m 2 min 0 min 247 W/m 19,3 km/h (3 Bft) 95,74 %
06.03.2023 15:56 6,1 C 7,2 C 2,2 C 82 % 1005,0 hPa 0,0 l/m 2 min 0 min 242 W/m 19,3 km/h (3 Bft) 95,74 %
06.03.2023 15:58 6,1 C 6,7 C 2,2 C 82 % 1005,0 hPa 0,0 l/m 2 min 0 min 170 W/m 16,1 km/h (3 Bft) 97,87 %
06.03.2023 16:00 6,0 C 6,7 C 2,2 C 81 % 1005,0 hPa 0,0 l/m 0 min 0 min 155 W/m 9,7 km/h (2 Bft) 97,87 %
06.03.2023 16:02 6,0 C 6,7 C 2,2 C 81 % 1005,0 hPa 0,0 l/m 2 min 0 min 189 W/m 16,1 km/h (3 Bft) 95,74 %
06.03.2023 16:04 5,9 C 6,7 C 2,2 C 81 % 1005,0 hPa 0,0 l/m 2 min 0 min 276 W/m 16,1 km/h (3 Bft) 97,83 %
06.03.2023 16:06 5,9 C 7,2 C 2,2 C 82 % 1005,0 hPa 0,0 l/m 2 min 0 min 259 W/m 12,9 km/h (3 Bft) 97,87 %
06.03.2023 16:08 6,0 C 7,2 C 2,2 C 82 % 1005,0 hPa 0,0 l/m 2 min 0 min 217 W/m 12,9 km/h (3 Bft) 97,87 %
06.03.2023 16:10 6,0 C 6,7 C 2,2 C 82 % 1005,0 hPa 0,0 l/m 2 min 0 min 198 W/m 16,1 km/h (3 Bft) 97,87 %
06.03.2023 16:12 6,1 C 6,7 C 2,2 C 82 % 1005,0 hPa 0,0 l/m 2 min 0 min 189 W/m 19,3 km/h (3 Bft) 95,74 %
06.03.2023 16:14 6,1 C 6,7 C 2,2 C 81 % 1005,0 hPa 0,0 l/m 2 min 0 min 216 W/m 16,1 km/h (3 Bft) 100,00 %
06.03.2023 16:16 6,0 C 6,7 C 2,2 C 81 % 1005,0 hPa 0,0 l/m 2 min 0 min 210 W/m 12,9 km/h (3 Bft) 100,00 %
06.03.2023 16:18 6,1 C 6,7 C 2,2 C 81 % 1005,0 hPa 0,0 l/m 2 min 0 min 199 W/m 22,5 km/h (4 Bft) 100,00 %
06.03.2023 16:20 6,0 C 6,1 C 2,2 C 81 % 1004,9 hPa 0,0 l/m 2 min 0 min 196 W/m 12,9 km/h (3 Bft) 97,87 %
06.03.2023 16:22 6,0 C 6,1 C 2,2 C 81 % 1004,9 hPa 0,0 l/m 2 min 0 min 231 W/m 19,3 km/h (3 Bft) 97,87 %
06.03.2023 16:24 6,1 C 6,1 C 2,8 C 82 % 1004,9 hPa 0,0 l/m 2 min 0 min 193 W/m 9,7 km/h (2 Bft) 97,87 %
06.03.2023 16:26 6,1 C 6,1 C 2,8 C 81 % 1004,9 hPa 0,0 l/m 2 min 0 min 140 W/m 22,5 km/h (4 Bft) 97,87 %
06.03.2023 16:28 6,1 C 6,1 C 2,2 C 81 % 1004,8 hPa 0,0 l/m 0 min 0 min 115 W/m 16,1 km/h (3 Bft) 97,83 %
06.03.2023 16:30 6,1 C 6,1 C 2,2 C 81 % 1004,8 hPa 0,0 l/m 2 min 0 min 172 W/m 19,3 km/h (3 Bft) 97,87 %
06.03.2023 16:32 6,1 C 6,1 C 2,2 C 81 % 1004,8 hPa 0,0 l/m 2 min 0 min 140 W/m 12,9 km/h (3 Bft) 97,87 %
06.03.2023 16:34 6,0 C 6,1 C 2,2 C 81 % 1004,8 hPa 0,0 l/m 2 min 0 min 135 W/m 22,5 km/h (4 Bft) 97,87 %
06.03.2023 16:36 6,0 C 6,1 C 2,2 C 81 % 1004,8 hPa 0,0 l/m 2 min 0 min 208 W/m 19,3 km/h (3 Bft) 97,87 %
06.03.2023 16:38 6,0 C 6,1 C 2,2 C 81 % 1004,8 hPa 0,0 l/m 2 min 0 min 200 W/m 16,1 km/h (3 Bft) 97,87 %
06.03.2023 16:40 6,0 C 6,1 C 2,2 C 81 % 1004,8 hPa 0,0 l/m 2 min 0 min 144 W/m 16,1 km/h (3 Bft) 97,87 %
06.03.2023 16:42 6,0 C 6,1 C 2,2 C 81 % 1004,8 hPa 0,0 l/m 0 min 0 min 119 W/m 12,9 km/h (3 Bft) 93,48 %
06.03.2023 16:44 5,9 C 6,1 C 2,2 C 81 % 1004,8 hPa 0,0 l/m 0 min 0 min 112 W/m 16,1 km/h (3 Bft) 97,87 %
06.03.2023 16:46 5,9 C 6,1 C 2,2 C 81 % 1004,7 hPa 0,0 l/m 0 min 0 min 109 W/m 16,1 km/h (3 Bft) 95,74 %
06.03.2023 16:48 5,9 C 5,6 C 2,2 C 81 % 1004,7 hPa 0,0 l/m 2 min 0 min 119 W/m 29,0 km/h (5 Bft) 97,87 %
06.03.2023 16:50 5,9 C 5,6 C 2,2 C 81 % 1004,7 hPa 0,0 l/m 2 min 0 min 120 W/m 25,7 km/h (4 Bft) 97,87 %
06.03.2023 16:52 5,8 C 5,6 C 2,2 C 81 % 1004,7 hPa 0,0 l/m 2 min 0 min 117 W/m 19,3 km/h (3 Bft) 95,74 %
06.03.2023 16:54 5,8 C 5,6 C 2,2 C 81 % 1004,7 hPa 0,0 l/m 2 min 0 min 117 W/m 12,9 km/h (3 Bft) 97,87 %
06.03.2023 16:56 5,8 C 5,6 C 2,2 C 82 % 1004,7 hPa 0,0 l/m 2 min 0 min 118 W/m 19,3 km/h (3 Bft) 95,65 %
06.03.2023 16:58 5,8 C 5,6 C 2,2 C 82 % 1004,6 hPa 0,0 l/m 2 min 0 min 113 W/m 22,5 km/h (4 Bft) 95,74 %
06.03.2023 17:00 5,8 C 5,6 C 2,2 C 82 % 1004,6 hPa 0,0 l/m 2 min 0 min 109 W/m 19,3 km/h (3 Bft) 100,00 %
06.03.2023 17:02 5,7 C 5,6 C 2,2 C 82 % 1004,6 hPa 0,0 l/m 2 min 0 min 100 W/m 25,7 km/h (4 Bft) 95,74 %
06.03.2023 17:04 5,7 C 5,6 C 2,2 C 81 % 1004,5 hPa 0,0 l/m 0 min 0 min 92 W/m 22,5 km/h (4 Bft) 97,87 %
06.03.2023 17:06 5,7 C 5,6 C 2,2 C 81 % 1004,5 hPa 0,0 l/m 0 min 0 min 83 W/m 29,0 km/h (5 Bft) 100,00 %
06.03.2023 17:08 5,7 C 5,6 C 1,7 C 81 % 1004,5 hPa 0,0 l/m 0 min 0 min 78 W/m 25,7 km/h (4 Bft) 97,83 %
06.03.2023 17:10 5,6 C 5,0 C 1,7 C 81 % 1004,5 hPa 0,0 l/m 0 min 0 min 82 W/m 19,3 km/h (3 Bft) 97,22 %
06.03.2023 17:12 5,6 C 5,0 C 1,7 C 81 % 1004,5 hPa 0,0 l/m 0 min 0 min 84 W/m 25,7 km/h (4 Bft) 97,83 %
06.03.2023 17:14 5,5 C 5,0 C 1,7 C 81 % 1004,5 hPa 0,0 l/m 0 min 0 min 82 W/m 22,5 km/h (4 Bft) 97,87 %
06.03.2023 17:16 5,5 C 5,0 C 1,7 C 81 % 1004,4 hPa 0,0 l/m 0 min 0 min 70 W/m 22,5 km/h (4 Bft) 95,74 %
06.03.2023 17:18 5,4 C 5,0 C 1,7 C 81 % 1004,4 hPa 0,0 l/m 0 min 0 min 56 W/m 19,3 km/h (3 Bft) 97,87 %
06.03.2023 17:20 5,4 C 5,0 C 1,7 C 81 % 1004,5 hPa 0,0 l/m 0 min 0 min 50 W/m 12,9 km/h (3 Bft) 95,74 %
06.03.2023 17:22 5,4 C 5,0 C 1,7 C 81 % 1004,5 hPa 0,0 l/m 0 min 0 min 47 W/m 22,5 km/h (4 Bft) 97,87 %
06.03.2023 17:24 5,4 C 5,0 C 1,7 C 81 % 1004,5 hPa 0,0 l/m 0 min 0 min 38 W/m 25,7 km/h (4 Bft) 97,87 %
06.03.2023 17:26 5,3 C 5,0 C 1,7 C 81 % 1004,5 hPa 0,0 l/m 0 min 0 min 31 W/m 12,9 km/h (3 Bft) 97,83 %
06.03.2023 17:28 5,3 C 5,0 C 1,7 C 81 % 1004,5 hPa 0,0 l/m 0 min 0 min 29 W/m 12,9 km/h (3 Bft) 97,87 %
06.03.2023 17:30 5,3 C 5,0 C 1,7 C 81 % 1004,5 hPa 0,0 l/m 0 min 0 min 27 W/m 12,9 km/h (3 Bft) 97,87 %
06.03.2023 17:32 5,3 C 5,0 C 1,7 C 81 % 1004,5 hPa 0,0 l/m 0 min 0 min 26 W/m 12,9 km/h (3 Bft) 93,62 %
06.03.2023 17:34 5,3 C 5,0 C 1,7 C 82 % 1004,4 hPa 0,0 l/m 0 min 0 min 26 W/m 9,7 km/h (2 Bft) 97,87 %
06.03.2023 17:36 5,3 C 5,0 C 1,7 C 82 % 1004,3 hPa 0,0 l/m 0 min 0 min 26 W/m 6,4 km/h (2 Bft) 95,74 %
06.03.2023 17:38 5,3 C 5,0 C 1,7 C 82 % 1004,3 hPa 0,0 l/m 0 min 0 min 23 W/m 6,4 km/h (2 Bft) 97,83 %
06.03.2023 17:40 5,3 C 4,4 C 1,7 C 82 % 1004,3 hPa 0,0 l/m 0 min 0 min 20 W/m 16,1 km/h (3 Bft) 97,87 %
06.03.2023 17:42 5,3 C 4,4 C 1,7 C 82 % 1004,2 hPa 0,0 l/m 0 min 0 min 18 W/m 12,9 km/h (3 Bft) 95,74 %
06.03.2023 17:44 5,2 C 4,4 C 1,1 C 82 % 1004,2 hPa 0,0 l/m 0 min 0 min 18 W/m 12,9 km/h (3 Bft) 97,87 %
06.03.2023 17:46 5,2 C 4,4 C 1,1 C 82 % 1004,2 hPa 0,0 l/m 0 min 0 min 18 W/m 19,3 km/h (3 Bft) 97,87 %
06.03.2023 17:48 5,2 C 4,4 C 1,1 C 82 % 1004,3 hPa 0,0 l/m 0 min 0 min 18 W/m 19,3 km/h (3 Bft) 95,74 %
06.03.2023 17:50 5,1 C 4,4 C 1,1 C 82 % 1004,1 hPa 0,0 l/m 0 min 0 min 16 W/m 16,1 km/h (3 Bft) 97,87 %
06.03.2023 17:52 5,1 C 4,4 C 1,1 C 82 % 1004,1 hPa 0,0 l/m 0 min 0 min 14 W/m 12,9 km/h (3 Bft) 100,00 %
06.03.2023 17:54 5,1 C 4,4 C 1,1 C 82 % 1004,2 hPa 0,0 l/m 0 min 0 min 12 W/m 16,1 km/h (3 Bft) 100,00 %
06.03.2023 17:56 5,0 C 4,4 C 1,1 C 82 % 1004,2 hPa 0,0 l/m 0 min 0 min 12 W/m 12,9 km/h (3 Bft) 100,00 %
06.03.2023 17:58 5,0 C 4,4 C 1,1 C 82 % 1004,1 hPa 0,0 l/m 0 min 0 min 11 W/m 9,7 km/h (2 Bft) 100,00 %
06.03.2023 18:00 5,0 C 4,4 C 1,1 C 83 % 1004,2 hPa 0,0 l/m 0 min 0 min 9 W/m 9,7 km/h (2 Bft) 100,00 %
06.03.2023 18:02 5,0 C 4,4 C 1,1 C 83 % 1004,1 hPa 0,0 l/m 0 min 0 min 8 W/m 12,9 km/h (3 Bft) 97,87 %
06.03.2023 18:04 4,9 C 4,4 C 1,1 C 83 % 1004,1 hPa 0,0 l/m 0 min 0 min 7 W/m 22,5 km/h (4 Bft) 100,00 %
06.03.2023 18:07 4,9 C 4,4 C 1,1 C 83 % 1004,1 hPa 0,0 l/m 0 min 0 min 6 W/m 19,3 km/h (3 Bft) 98,72 %
06.03.2023 18:08 4,9 C 4,4 C 1,1 C 83 % 1004,1 hPa 0,0 l/m 0 min 0 min 5 W/m 9,7 km/h (2 Bft) 100,00 %
06.03.2023 18:12 4,9 C 4,4 C 1,1 C 83 % 1004,0 hPa 0,0 l/m 0 min 0 min 0 W/m 16,1 km/h (3 Bft) 98,00 %
06.03.2023 18:14 4,9 C 4,4 C 1,1 C 83 % 1004,1 hPa 0,0 l/m 0 min 0 min 0 W/m 12,9 km/h (3 Bft) 97,87 %
06.03.2023 18:16 4,9 C 4,4 C 1,1 C 83 % 1004,0 hPa 0,0 l/m 0 min 0 min 0 W/m 9,7 km/h (2 Bft) 95,74 %
06.03.2023 18:18 4,9 C 4,4 C 1,1 C 84 % 1004,0 hPa 0,0 l/m 0 min 0 min 0 W/m 9,7 km/h (2 Bft) 97,83 %
06.03.2023 18:20 4,9 C 4,4 C 1,1 C 84 % 1004,0 hPa 0,0 l/m 0 min 0 min 0 W/m 6,4 km/h (2 Bft) 100,00 %
06.03.2023 18:22 4,8 C 4,4 C 1,1 C 84 % 1004,0 hPa 0,0 l/m 0 min 0 min 0 W/m 9,7 km/h (2 Bft) 97,87 %
06.03.2023 18:24 4,8 C 4,4 C 1,1 C 84 % 1004,0 hPa 0,0 l/m 0 min 0 min 0 W/m 9,7 km/h (2 Bft) 95,74 %
06.03.2023 18:26 4,8 C 4,4 C 1,1 C 84 % 1004,0 hPa 0,0 l/m 0 min 0 min 0 W/m 6,4 km/h (2 Bft) 97,87 %
06.03.2023 18:28 4,8 C 4,4 C 1,1 C 84 % 1004,0 hPa 0,0 l/m 0 min 0 min 0 W/m 12,9 km/h (3 Bft) 95,74 %
06.03.2023 18:30 4,8 C 3,9 C 1,1 C 84 % 1004,0 hPa 0,0 l/m 0 min 0 min 0 W/m 6,4 km/h (2 Bft) 93,62 %
06.03.2023 18:32 4,8 C 3,9 C 1,1 C 84 % 1004,0 hPa 0,0 l/m 0 min 0 min 0 W/m 12,9 km/h (3 Bft) 95,65 %
06.03.2023 18:34 4,8 C 3,9 C 0,6 C 84 % 1004,0 hPa 0,0 l/m 0 min 2 min 0 W/m 16,1 km/h (3 Bft) 93,62 %
06.03.2023 18:36 4,8 C 3,9 C 0,6 C 85 % 1004,0 hPa 0,0 l/m 0 min 0 min 0 W/m 6,4 km/h (2 Bft) 93,62 %
06.03.2023 18:38 4,8 C 3,9 C 0,6 C 85 % 1004,0 hPa 0,0 l/m 0 min 0 min 0 W/m 16,1 km/h (3 Bft) 95,74 %
06.03.2023 18:40 4,8 C 3,9 C 0,6 C 85 % 1004,0 hPa 0,0 l/m 0 min 0 min 0 W/m 12,9 km/h (3 Bft) 95,74 %
06.03.2023 18:42 4,8 C 3,9 C 0,6 C 85 % 1004,0 hPa 0,0 l/m 0 min 0 min 0 W/m 6,4 km/h (2 Bft) 93,62 %
06.03.2023 18:44 4,8 C 3,9 C 0,6 C 85 % 1004,0 hPa 0,0 l/m 0 min 0 min 0 W/m 6,4 km/h (2 Bft) 95,74 %
06.03.2023 18:46 4,8 C 3,9 C 0,6 C 85 % 1004,1 hPa 0,0 l/m 0 min 0 min 0 W/m 9,7 km/h (2 Bft) 95,65 %
06.03.2023 18:48 4,8 C 3,9 C 0,6 C 86 % 1004,0 hPa 0,0 l/m 0 min 0 min 0 W/m 9,7 km/h (2 Bft) 95,74 %
06.03.2023 18:50 4,7 C 3,9 C 0,6 C 86 % 1004,0 hPa 0,0 l/m 0 min 0 min 0 W/m 9,7 km/h (2 Bft) 93,62 %
06.03.2023 18:52 4,7 C 3,9 C 0,6 C 86 % 1004,0 hPa 0,0 l/m 0 min 0 min 0 W/m 9,7 km/h (2 Bft) 93,62 %
06.03.2023 18:54 4,7 C 3,9 C 0,6 C 86 % 1004,0 hPa 0,0 l/m 0 min 0 min 0 W/m 12,9 km/h (3 Bft) 95,74 %
06.03.2023 18:56 4,7 C 3,9 C 0,6 C 86 % 1003,9 hPa 0,0 l/m 0 min 0 min 0 W/m 9,7 km/h (2 Bft) 95,74 %
06.03.2023 18:58 4,7 C 3,9 C 0,6 C 86 % 1003,9 hPa 0,0 l/m 0 min 0 min 0 W/m 9,7 km/h (2 Bft) 97,87 %
06.03.2023 19:00 4,7 C 3,9 C 0,6 C 86 % 1003,9 hPa 0,0 l/m 0 min 0 min 0 W/m 6,4 km/h (2 Bft) 100,00 %
06.03.2023 19:02 4,7 C 3,9 C 0,6 C 86 % 1003,9 hPa 0,0 l/m 0 min 0 min 0 W/m 12,9 km/h (3 Bft) 100,00 %
06.03.2023 19:04 4,6 C 3,9 C 0,6 C 86 % 1003,9 hPa 0,0 l/m 0 min 0 min 0 W/m 12,9 km/h (3 Bft) 97,92 %
06.03.2023 19:06 4,6 C 3,9 C 0,6 C 86 % 1003,9 hPa 0,0 l/m 0 min 0 min 0 W/m 0,0 km/h (0 Bft) 100,00 %
06.03.2023 19:08 4,6 C 3,9 C 0,6 C 86 % 1003,9 hPa 0,0 l/m 0 min 0 min 0 W/m 6,4 km/h (2 Bft) 100,00 %
06.03.2023 19:10 4,6 C 3,9 C 0,6 C 87 % 1003,8 hPa 0,0 l/m 0 min 0 min 0 W/m 9,7 km/h (2 Bft) 100,00 %
06.03.2023 19:12 4,6 C 3,9 C 0,6 C 87 % 1003,9 hPa 0,0 l/m 0 min 0 min 0 W/m 6,4 km/h (2 Bft) 97,83 %
06.03.2023 19:14 4,6 C 3,9 C 0,6 C 87 % 1003,8 hPa 0,0 l/m 0 min 0 min 0 W/m 6,4 km/h (2 Bft) 100,00 %
06.03.2023 19:16 4,6 C 3,9 C 0,6 C 87 % 1003,8 hPa 0,0 l/m 0 min 0 min 0 W/m 9,7 km/h (2 Bft) 100,00 %
06.03.2023 19:18 4,6 C 3,9 C 0,6 C 87 % 1003,8 hPa 0,0 l/m 0 min 0 min 0 W/m 12,9 km/h (3 Bft) 97,87 %
06.03.2023 19:20 4,6 C 3,9 C 0,6 C 87 % 1003,8 hPa 0,0 l/m 0 min 0 min 0 W/m 16,1 km/h (3 Bft) 97,87 %
06.03.2023 19:22 4,5 C 3,9 C 0,6 C 87 % 1003,8 hPa 0,0 l/m 0 min 0 min 0 W/m 16,1 km/h (3 Bft) 100,00 %
06.03.2023 19:24 4,5 C 3,9 C 0,6 C 87 % 1003,8 hPa 0,0 l/m 0 min 0 min 0 W/m 12,9 km/h (3 Bft) 100,00 %
06.03.2023 19:26 4,5 C 3,9 C 0,6 C 87 % 1003,7 hPa 0,0 l/m 0 min 0 min 0 W/m 12,9 km/h (3 Bft) 97,87 %
06.03.2023 19:28 4,5 C 3,9 C 0,6 C 86 % 1003,7 hPa 0,0 l/m 0 min 0 min 0 W/m 16,1 km/h (3 Bft) 97,22 %
06.03.2023 19:30 4,5 C 3,9 C 0,6 C 86 % 1003,7 hPa 0,0 l/m 0 min 0 min 0 W/m 16,1 km/h (3 Bft) 100,00 %
06.03.2023 19:32 4,5 C 3,9 C 0,6 C 86 % 1003,7 hPa 0,0 l/m 0 min 0 min 0 W/m 19,3 km/h (3 Bft) 100,00 %
06.03.2023 19:34 4,5 C 3,9 C 0,6 C 86 % 1003,6 hPa 0,0 l/m 0 min 0 min 0 W/m 12,9 km/h (3 Bft) 97,87 %
06.03.2023 19:36 4,5 C 3,9 C 0,6 C 86 % 1003,6 hPa 0,0 l/m 0 min 0 min 0 W/m 16,1 km/h (3 Bft) 97,87 %
06.03.2023 19:38 4,5 C 3,9 C 0,6 C 86 % 1003,6 hPa 0,0 l/m 0 min 0 min 0 W/m 16,1 km/h (3 Bft) 97,83 %
06.03.2023 19:40 4,5 C 3,9 C 0,6 C 85 % 1003,6 hPa 0,0 l/m 0 min 0 min 0 W/m 16,1 km/h (3 Bft) 97,87 %
06.03.2023 19:42 4,6 C 3,9 C 0,6 C 85 % 1003,6 hPa 0,0 l/m 0 min 0 min 0 W/m 12,9 km/h (3 Bft) 97,87 %
06.03.2023 19:44 4,6 C 3,9 C 0,6 C 85 % 1003,6 hPa 0,0 l/m 0 min 0 min 0 W/m 19,3 km/h (3 Bft) 98,11 %
06.03.2023 19:46 4,6 C 3,9 C 0,6 C 84 % 1003,5 hPa 0,0 l/m 0 min 0 min 0 W/m 12,9 km/h (3 Bft) 95,74 %
06.03.2023 19:48 4,6 C 3,9 C 1,1 C 84 % 1003,5 hPa 0,0 l/m 0 min 0 min 0 W/m 19,3 km/h (3 Bft) 95,74 %
06.03.2023 19:50 4,6 C 4,4 C 1,1 C 83 % 1003,4 hPa 0,0 l/m 0 min 0 min 0 W/m 19,3 km/h (3 Bft) 97,87 %
06.03.2023 19:52 4,6 C 4,4 C 1,1 C 83 % 1003,4 hPa 0,0 l/m 0 min 0 min 0 W/m 19,3 km/h (3 Bft) 95,74 %
06.03.2023 19:54 4,6 C 4,4 C 1,1 C 83 % 1003,4 hPa 0,0 l/m 0 min 0 min 0 W/m 22,5 km/h (4 Bft) 100,00 %
06.03.2023 19:56 4,7 C 4,4 C 1,1 C 82 % 1003,4 hPa 0,0 l/m 0 min 0 min 0 W/m 22,5 km/h (4 Bft) 91,49 %
06.03.2023 19:58 4,7 C 4,4 C 1,1 C 82 % 1003,4 hPa 0,0 l/m 0 min 0 min 0 W/m 22,5 km/h (4 Bft) 97,87 %
06.03.2023 20:00 4,7 C 4,4 C 1,1 C 82 % 1003,4 hPa 0,0 l/m 0 min 0 min 0 W/m 9,7 km/h (2 Bft) 95,74 %
06.03.2023 20:02 4,7 C 4,4 C 1,1 C 82 % 1003,3 hPa 0,0 l/m 0 min 0 min 0 W/m 25,7 km/h (4 Bft) 96,55 %
06.03.2023 20:04 4,7 C 4,4 C 1,1 C 81 % 1003,3 hPa 0,0 l/m 0 min 0 min 0 W/m 19,3 km/h (3 Bft) 97,22 %
06.03.2023 20:06 4,8 C 4,4 C 1,1 C 81 % 1003,3 hPa 0,0 l/m 0 min 0 min 0 W/m 9,7 km/h (2 Bft) 96,55 %
06.03.2023 20:08 4,8 C 4,4 C 1,1 C 81 % 1003,3 hPa 0,0 l/m 0 min 0 min 0 W/m 16,1 km/h (3 Bft) 97,14 %
06.03.2023 20:10 4,8 C 4,4 C 1,1 C 81 % 1003,4 hPa 0,0 l/m 0 min 0 min 0 W/m 12,9 km/h (3 Bft) 97,87 %
06.03.2023 20:12 4,8 C 4,4 C 1,1 C 81 % 1003,3 hPa 0,0 l/m 0 min 0 min 0 W/m 16,1 km/h (3 Bft) 93,62 %
06.03.2023 20:14 4,8 C 4,4 C 1,1 C 81 % 1003,3 hPa 0,0 l/m 0 min 0 min 0 W/m 12,9 km/h (3 Bft) 97,87 %
06.03.2023 20:16 4,8 C 4,4 C 0,6 C 81 % 1003,3 hPa 0,0 l/m 0 min 0 min 0 W/m 19,3 km/h (3 Bft) 97,87 %
06.03.2023 20:18 4,8 C 4,4 C 0,6 C 81 % 1003,3 hPa 0,0 l/m 0 min 0 min 0 W/m 25,7 km/h (4 Bft) 95,74 %
06.03.2023 20:20 4,8 C 4,4 C 1,1 C 81 % 1003,2 hPa 0,0 l/m 0 min 0 min 0 W/m 19,3 km/h (3 Bft) 95,65 %
06.03.2023 20:22 4,8 C 4,4 C 1,1 C 80 % 1003,1 hPa 0,0 l/m 0 min 0 min 0 W/m 19,3 km/h (3 Bft) 97,87 %
06.03.2023 20:24 4,8 C 4,4 C 1,1 C 80 % 1003,2 hPa 0,0 l/m 0 min 0 min 0 W/m 35,4 km/h (5 Bft) 97,87 %
06.03.2023 20:26 4,8 C 4,4 C 1,1 C 80 % 1003,1 hPa 0,0 l/m 0 min 0 min 0 W/m 35,4 km/h (5 Bft) 97,87 %
06.03.2023 20:28 4,8 C 4,4 C 1,1 C 79 % 1003,0 hPa 0,0 l/m 0 min 0 min 0 W/m 22,5 km/h (4 Bft) 95,74 %
06.03.2023 20:30 4,8 C 4,4 C 1,1 C 79 % 1003,1 hPa 0,0 l/m 0 min 0 min 0 W/m 38,6 km/h (5 Bft) 97,87 %
06.03.2023 20:32 4,9 C 4,4 C 1,1 C 79 % 1003,1 hPa 0,0 l/m 0 min 0 min 0 W/m 22,5 km/h (4 Bft) 97,87 %
06.03.2023 20:34 4,9 C 4,4 C 1,1 C 79 % 1003,0 hPa 0,0 l/m 0 min 0 min 0 W/m 35,4 km/h (5 Bft) 97,83 %
06.03.2023 20:36 4,9 C 4,4 C 1,1 C 79 % 1003,0 hPa 0,0 l/m 0 min 0 min 0 W/m 32,2 km/h (5 Bft) 97,87 %
06.03.2023 20:38 4,8 C 4,4 C 1,1 C 79 % 1002,9 hPa 0,0 l/m 0 min 0 min 0 W/m 22,5 km/h (4 Bft) 44,44 %
06.03.2023 20:40 4,8 C 4,4 C 1,1 C 79 % 1002,9 hPa 0,0 l/m 0 min 0 min 0 W/m 19,3 km/h (3 Bft) 95,74 %
06.03.2023 20:42 4,8 C 4,4 C 1,1 C 79 % 1002,9 hPa 0,0 l/m 0 min 0 min 0 W/m 32,2 km/h (5 Bft) 95,74 %
06.03.2023 20:44 4,8 C 4,4 C 1,1 C 79 % 1002,9 hPa 0,0 l/m 0 min 0 min 0 W/m 25,7 km/h (4 Bft) 97,87 %
06.03.2023 20:46 4,8 C 4,4 C 1,1 C 79 % 1002,8 hPa 0,0 l/m 0 min 0 min 0 W/m 19,3 km/h (3 Bft) 97,83 %
06.03.2023 20:48 4,8 C 4,4 C 1,1 C 79 % 1002,8 hPa 0,0 l/m 0 min 0 min 0 W/m 32,2 km/h (5 Bft) 93,62 %
06.03.2023 20:50 4,8 C 4,4 C 1,1 C 79 % 1002,8 hPa 0,0 l/m 0 min 0 min 0 W/m 19,3 km/h (3 Bft) 100,00 %
06.03.2023 20:52 4,8 C 4,4 C 1,1 C 79 % 1002,7 hPa 0,0 l/m 0 min 0 min 0 W/m 25,7 km/h (4 Bft) 100,00 %
06.03.2023 20:54 4,8 C 4,4 C 1,1 C 78 % 1002,7 hPa 0,0 l/m 0 min 0 min 0 W/m 41,8 km/h (6 Bft) 98,15 %
06.03.2023 20:56 4,8 C 4,4 C 1,1 C 78 % 1002,7 hPa 0,0 l/m 0 min 0 min 0 W/m 19,3 km/h (3 Bft) 100,00 %
06.03.2023 20:58 4,8 C 4,4 C 1,1 C 78 % 1002,6 hPa 0,0 l/m 0 min 0 min 0 W/m 29,0 km/h (5 Bft) 100,00 %
06.03.2023 21:00 4,8 C 4,4 C 1,1 C 78 % 1002,7 hPa 0,0 l/m 0 min 0 min 0 W/m 35,4 km/h (5 Bft) 97,83 %
06.03.2023 21:02 4,9 C 4,4 C 1,1 C 77 % 1002,6 hPa 0,0 l/m 0 min 0 min 0 W/m 32,2 km/h (5 Bft) 98,11 %
06.03.2023 21:04 4,9 C 4,4 C 1,1 C 77 % 1002,6 hPa 0,0 l/m 0 min 0 min 0 W/m 25,7 km/h (4 Bft) 100,00 %
06.03.2023 21:06 4,9 C 4,4 C 1,1 C 77 % 1002,6 hPa 0,0 l/m 0 min 0 min 0 W/m 19,3 km/h (3 Bft) 98,31 %
06.03.2023 21:08 4,8 C 4,4 C 1,1 C 77 % 1002,6 hPa 0,0 l/m 0 min 0 min 0 W/m 29,0 km/h (5 Bft) 97,14 %
06.03.2023 21:10 4,9 C 4,4 C 1,1 C 77 % 1002,5 hPa 0,0 l/m 0 min 0 min 0 W/m 25,7 km/h (4 Bft) 100,00 %
06.03.2023 21:12 4,9 C 4,4 C 1,1 C 77 % 1002,5 hPa 0,0 l/m 0 min 0 min 0 W/m 19,3 km/h (3 Bft) 94,00 %
06.03.2023 21:14 4,8 C 4,4 C 1,1 C 78 % 1002,5 hPa 0,0 l/m 0 min 0 min 0 W/m 25,7 km/h (4 Bft) 97,83 %
06.03.2023 21:16 4,8 C 3,9 C 0,6 C 78 % 1002,5 hPa 0,0 l/m 0 min 0 min 0 W/m 29,0 km/h (5 Bft) 97,87 %
06.03.2023 21:18 4,8 C 3,9 C 0,6 C 78 % 1002,4 hPa 0,0 l/m 0 min 0 min 0 W/m 25,7 km/h (4 Bft) 95,74 %
06.03.2023 21:20 4,8 C 3,9 C 0,6 C 79 % 1002,4 hPa 0,0 l/m 0 min 0 min 0 W/m 29,0 km/h (5 Bft) 93,62 %
06.03.2023 21:22 4,7 C 3,9 C 0,6 C 79 % 1002,4 hPa 0,0 l/m 0 min 0 min 0 W/m 32,2 km/h (5 Bft) 95,92 %
06.03.2023 21:24 4,7 C 3,9 C 0,6 C 79 % 1002,4 hPa 0,0 l/m 0 min 0 min 0 W/m 19,3 km/h (3 Bft) 95,74 %
06.03.2023 21:26 4,7 C 3,9 C 0,6 C 79 % 1002,4 hPa 0,0 l/m 0 min 0 min 0 W/m 25,7 km/h (4 Bft) 97,87 %
06.03.2023 21:28 4,6 C 3,9 C 0,6 C 79 % 1002,3 hPa 0,0 l/m 0 min 0 min 0 W/m 38,6 km/h (5 Bft) 95,74 %
06.03.2023 21:30 4,6 C 3,9 C 0,6 C 80 % 1002,3 hPa 0,0 l/m 0 min 0 min 0 W/m 29,0 km/h (5 Bft) 95,74 %
06.03.2023 21:32 4,6 C 3,9 C 0,6 C 80 % 1002,2 hPa 0,0 l/m 0 min 0 min 0 W/m 29,0 km/h (5 Bft) 97,87 %
06.03.2023 21:34 4,6 C 3,9 C 0,6 C 80 % 1002,2 hPa 0,0 l/m 0 min 0 min 0 W/m 29,0 km/h (5 Bft) 97,87 %
06.03.2023 21:36 4,6 C 3,9 C 0,6 C 80 % 1002,2 hPa 0,0 l/m 0 min 0 min 0 W/m 25,7 km/h (4 Bft) 91,30 %
06.03.2023 21:38 4,6 C 3,9 C 0,6 C 80 % 1002,1 hPa 0,0 l/m 0 min 0 min 0 W/m 22,5 km/h (4 Bft) 97,87 %
06.03.2023 21:40 4,6 C 3,9 C 0,6 C 80 % 1002,1 hPa 0,0 l/m 0 min 0 min 0 W/m 54,7 km/h (7 Bft) 95,74 %
06.03.2023 21:42 4,6 C 3,9 C 0,6 C 80 % 1002,1 hPa 0,0 l/m 0 min 0 min 0 W/m 32,2 km/h (5 Bft) 95,74 %
06.03.2023 21:44 4,6 C 3,9 C 0,6 C 80 % 1002,1 hPa 0,0 l/m 0 min 0 min 0 W/m 29,0 km/h (5 Bft) 97,87 %
06.03.2023 21:46 4,6 C 3,9 C 0,6 C 80 % 1002,1 hPa 0,0 l/m 0 min 0 min 0 W/m 29,0 km/h (5 Bft) 95,74 %
06.03.2023 21:48 4,6 C 3,9 C 0,6 C 80 % 1002,0 hPa 0,0 l/m 0 min 0 min 0 W/m 22,5 km/h (4 Bft) 97,14 %
06.03.2023 21:50 4,6 C 3,9 C 0,6 C 80 % 1002,0 hPa 0,0 l/m 0 min 0 min 0 W/m 38,6 km/h (5 Bft) 97,87 %
06.03.2023 21:52 4,6 C 3,9 C 0,6 C 80 % 1002,0 hPa 0,0 l/m 0 min 0 min 0 W/m 35,4 km/h (5 Bft) 97,87 %
06.03.2023 21:54 4,6 C 3,9 C 0,6 C 80 % 1002,0 hPa 0,0 l/m 0 min 0 min 0 W/m 29,0 km/h (5 Bft) 97,83 %
06.03.2023 21:56 4,6 C 3,9 C 0,6 C 80 % 1002,0 hPa 0,0 l/m 0 min 0 min 0 W/m 45,1 km/h (6 Bft) 95,74 %
06.03.2023 21:58 4,6 C 3,9 C 0,6 C 80 % 1002,0 hPa 0,0 l/m 0 min 0 min 0 W/m 29,0 km/h (5 Bft) 96,23 %
06.03.2023 22:00 4,6 C 3,9 C 0,6 C 80 % 1002,0 hPa 0,0 l/m 0 min 0 min 0 W/m 22,5 km/h (4 Bft) 93,62 %
06.03.2023 22:02 4,6 C 3,9 C 0,6 C 80 % 1002,0 hPa 0,0 l/m 0 min 0 min 0 W/m 22,5 km/h (4 Bft) 93,62 %
06.03.2023 22:04 4,6 C 3,9 C 0,6 C 81 % 1002,0 hPa 0,0 l/m 0 min 0 min 0 W/m 38,6 km/h (5 Bft) 97,87 %
06.03.2023 22:06 4,6 C 3,9 C 0,6 C 81 % 1001,9 hPa 0,0 l/m 0 min 0 min 0 W/m 29,0 km/h (5 Bft) 96,55 %
06.03.2023 22:08 4,6 C 3,9 C 0,6 C 81 % 1001,9 hPa 0,0 l/m 0 min 0 min 0 W/m 29,0 km/h (5 Bft) 97,14 %
06.03.2023 22:10 4,6 C 3,9 C 0,6 C 81 % 1001,9 hPa 0,0 l/m 0 min 0 min 0 W/m 41,8 km/h (6 Bft) 93,62 %
06.03.2023 22:12 4,6 C 3,9 C 0,6 C 81 % 1001,8 hPa 0,0 l/m 0 min 0 min 0 W/m 25,7 km/h (4 Bft) 92,31 %
06.03.2023 22:14 4,6 C 3,9 C 0,6 C 81 % 1001,8 hPa 0,0 l/m 0 min 0 min 0 W/m 22,5 km/h (4 Bft) 95,74 %
06.03.2023 22:16 4,5 C 3,9 C 0,6 C 82 % 1001,9 hPa 0,0 l/m 0 min 0 min 0 W/m 22,5 km/h (4 Bft) 93,62 %
06.03.2023 22:18 4,4 C 3,9 C 0,6 C 82 % 1001,8 hPa 0,0 l/m 0 min 0 min 0 W/m 32,2 km/h (5 Bft) 95,74 %
06.03.2023 22:20 4,4 C 3,9 C 0,6 C 82 % 1001,9 hPa 0,0 l/m 0 min 0 min 0 W/m 29,0 km/h (5 Bft) 93,48 %
06.03.2023 22:22 4,4 C 3,3 C 0,6 C 83 % 1001,8 hPa 0,0 l/m 0 min 0 min 0 W/m 25,7 km/h (4 Bft) 93,75 %
06.03.2023 22:24 4,3 C 3,3 C 0,0 C 83 % 1001,8 hPa 0,0 l/m 0 min 0 min 0 W/m 22,5 km/h (4 Bft) 94,29 %
06.03.2023 22:26 4,3 C 3,3 C 0,0 C 84 % 1001,8 hPa 0,0 l/m 0 min 0 min 0 W/m 29,0 km/h (5 Bft) 96,61 %
06.03.2023 22:28 4,3 C 3,3 C 0,0 C 84 % 1001,8 hPa 0,0 l/m 0 min 2 min 0 W/m 19,3 km/h (3 Bft) 95,74 %
06.03.2023 22:30 4,2 C 3,3 C 0,0 C 85 % 1001,7 hPa 0,0 l/m 0 min 2 min 0 W/m 29,0 km/h (5 Bft) 91,43 %
06.03.2023 22:32 4,2 C 3,3 C 0,0 C 86 % 1001,7 hPa 0,0 l/m 0 min 2 min 0 W/m 32,2 km/h (5 Bft) 95,74 %
06.03.2023 22:34 4,1 C 3,3 C -0,6 C 86 % 1001,7 hPa 0,0 l/m 0 min 2 min 0 W/m 22,5 km/h (4 Bft) 95,65 %
06.03.2023 22:36 4,1 C 2,8 C -0,6 C 87 % 1001,5 hPa 0,0 l/m 0 min 2 min 0 W/m 25,7 km/h (4 Bft) 94,92 %
06.03.2023 22:38 4,0 C 2,8 C -0,6 C 87 % 1001,6 hPa 0,0 l/m 0 min 2 min 0 W/m 16,1 km/h (3 Bft) 97,14 %
06.03.2023 22:40 3,9 C 2,8 C -0,6 C 87 % 1001,6 hPa 0,0 l/m 0 min 2 min 0 W/m 12,9 km/h (3 Bft) 97,87 %
06.03.2023 22:42 3,9 C 2,8 C -0,6 C 88 % 1001,6 hPa 0,0 l/m 0 min 2 min 0 W/m 16,1 km/h (3 Bft) 97,87 %
06.03.2023 22:44 3,9 C 2,8 C -0,6 C 88 % 1001,5 hPa 0,0 l/m 0 min 2 min 0 W/m 25,7 km/h (4 Bft) 57,45 %
06.03.2023 22:46 3,8 C 2,8 C -0,6 C 89 % 1001,5 hPa 0,0 l/m 0 min 2 min 0 W/m 19,3 km/h (3 Bft) 97,87 %
06.03.2023 22:48 3,8 C 2,8 C -0,6 C 89 % 1001,4 hPa 0,0 l/m 0 min 2 min 0 W/m 29,0 km/h (5 Bft) 100,00 %
06.03.2023 22:50 3,8 C 2,8 C -0,6 C 89 % 1001,5 hPa 0,0 l/m 0 min 2 min 0 W/m 22,5 km/h (4 Bft) 100,00 %
06.03.2023 22:52 3,7 C 2,8 C -0,6 C 89 % 1001,4 hPa 0,0 l/m 0 min 2 min 0 W/m 32,2 km/h (5 Bft) 100,00 %
06.03.2023 22:54 3,7 C 2,8 C -0,6 C 90 % 1001,4 hPa 0,0 l/m 0 min 2 min 0 W/m 22,5 km/h (4 Bft) 100,00 %
06.03.2023 22:56 3,7 C 2,8 C -0,6 C 90 % 1001,3 hPa 0,0 l/m 0 min 0 min 0 W/m 16,1 km/h (3 Bft) 100,00 %
06.03.2023 22:58 3,7 C 2,8 C -0,6 C 90 % 1001,3 hPa 0,0 l/m 0 min 2 min 0 W/m 25,7 km/h (4 Bft) 100,00 %
06.03.2023 23:00 3,7 C 2,8 C -0,6 C 90 % 1001,3 hPa 0,0 l/m 0 min 0 min 0 W/m 32,2 km/h (5 Bft) 97,87 %
06.03.2023 23:02 3,7 C 2,8 C -0,6 C 90 % 1001,2 hPa 0,0 l/m 0 min 0 min 0 W/m 29,0 km/h (5 Bft) 100,00 %
06.03.2023 23:04 3,7 C 2,8 C -0,6 C 91 % 1001,1 hPa 0,0 l/m 0 min 0 min 0 W/m 25,7 km/h (4 Bft) 97,87 %
06.03.2023 23:06 3,7 C 2,8 C -0,6 C 91 % 1001,0 hPa 0,0 l/m 0 min 2 min 0 W/m 22,5 km/h (4 Bft) 100,00 %
06.03.2023 23:08 3,7 C 2,8 C -0,6 C 91 % 1001,0 hPa 0,0 l/m 0 min 2 min 0 W/m 16,1 km/h (3 Bft) 97,14 %
06.03.2023 23:10 3,7 C 2,8 C -0,6 C 91 % 1001,0 hPa 0,0 l/m 0 min 0 min 0 W/m 25,7 km/h (4 Bft) 100,00 %
06.03.2023 23:12 3,7 C 2,8 C -0,6 C 91 % 1001,0 hPa 0,0 l/m 0 min 0 min 0 W/m 22,5 km/h (4 Bft) 100,00 %
06.03.2023 23:14 3,7 C 2,8 C -0,6 C 91 % 1000,9 hPa 0,0 l/m 0 min 0 min 0 W/m 22,5 km/h (4 Bft) 97,87 %
06.03.2023 23:16 3,7 C 2,8 C -0,6 C 91 % 1000,9 hPa 0,0 l/m 0 min 2 min 0 W/m 22,5 km/h (4 Bft) 97,87 %
06.03.2023 23:18 3,7 C 2,8 C -0,6 C 91 % 1000,8 hPa 0,0 l/m 0 min 2 min 0 W/m 19,3 km/h (3 Bft) 100,00 %
06.03.2023 23:20 3,7 C 2,8 C -0,6 C 91 % 1000,8 hPa 0,0 l/m 0 min 2 min 0 W/m 22,5 km/h (4 Bft) 97,87 %
06.03.2023 23:22 3,7 C 3,3 C -0,6 C 91 % 1000,8 hPa 0,0 l/m 0 min 2 min 0 W/m 25,7 km/h (4 Bft) 100,00 %
06.03.2023 23:24 3,7 C 3,3 C -0,6 C 91 % 1000,7 hPa 0,0 l/m 0 min 2 min 0 W/m 19,3 km/h (3 Bft) 100,00 %
06.03.2023 23:26 3,7 C 3,3 C -0,6 C 91 % 1000,7 hPa 0,2 l/m 0 min 2 min 0 W/m 22,5 km/h (4 Bft) 100,00 %
06.03.2023 23:28 3,7 C 3,3 C -0,6 C 92 % 1000,9 hPa 0,0 l/m 0 min 2 min 0 W/m 32,2 km/h (5 Bft) 100,00 %
06.03.2023 23:30 3,8 C 3,3 C -0,6 C 92 % 1000,7 hPa 0,0 l/m 0 min 2 min 0 W/m 29,0 km/h (5 Bft) 100,00 %
06.03.2023 23:32 3,8 C 2,8 C -0,6 C 92 % 1000,7 hPa 0,0 l/m 0 min 2 min 0 W/m 25,7 km/h (4 Bft) 100,00 %
06.03.2023 23:34 3,8 C 3,3 C -0,6 C 92 % 1000,7 hPa 0,0 l/m 0 min 2 min 0 W/m 16,1 km/h (3 Bft) 100,00 %
06.03.2023 23:36 3,8 C 3,3 C -0,6 C 92 % 1000,7 hPa 0,0 l/m 0 min 2 min 0 W/m 25,7 km/h (4 Bft) 100,00 %
06.03.2023 23:38 3,8 C 3,3 C -0,6 C 92 % 1000,8 hPa 0,0 l/m 0 min 2 min 0 W/m 45,1 km/h (6 Bft) 100,00 %
06.03.2023 23:40 3,8 C 3,3 C -0,6 C 92 % 1000,6 hPa 0,0 l/m 0 min 2 min 0 W/m 25,7 km/h (4 Bft) 97,83 %
06.03.2023 23:42 3,9 C 3,3 C -0,6 C 92 % 1000,5 hPa 0,0 l/m 0 min 2 min 0 W/m 22,5 km/h (4 Bft) 100,00 %
06.03.2023 23:44 3,9 C 3,3 C -0,6 C 92 % 1000,6 hPa 0,0 l/m 0 min 2 min 0 W/m 25,7 km/h (4 Bft) 100,00 %
06.03.2023 23:46 3,9 C 3,3 C -0,6 C 92 % 1000,6 hPa 0,0 l/m 0 min 2 min 0 W/m 22,5 km/h (4 Bft) 100,00 %
06.03.2023 23:48 3,9 C 3,3 C -0,6 C 92 % 1000,5 hPa 0,0 l/m 0 min 2 min 0 W/m 25,7 km/h (4 Bft) 100,00 %
06.03.2023 23:50 3,9 C 3,3 C -0,6 C 92 % 1000,4 hPa 0,0 l/m 0 min 2 min 0 W/m 19,3 km/h (3 Bft) 100,00 %
06.03.2023 23:52 3,9 C 3,3 C -0,6 C 93 % 1000,5 hPa 0,0 l/m 0 min 2 min 0 W/m 19,3 km/h (3 Bft) 97,83 %
06.03.2023 23:54 4,0 C 3,3 C -0,6 C 93 % 1000,4 hPa 0,2 l/m 0 min 2 min 0 W/m 38,6 km/h (5 Bft) 100,00 %
06.03.2023 23:56 4,0 C 3,3 C -0,6 C 93 % 1000,4 hPa 0,0 l/m 0 min 2 min 0 W/m 25,7 km/h (4 Bft) 97,87 %
06.03.2023 23:58 4,0 C 3,3 C -0,6 C 93 % 1000,5 hPa 0,0 l/m 0 min 2 min 0 W/m 25,7 km/h (4 Bft) 100,00 %
_ Min-Zeit 01:50 01:38 00:32 21:02 23:50 - - - - 03:20 08:18
Minimum _ 2,2 C 1,7 C -1,1 C 77 % 1000,4 hPa - - - - 0,0 km/h (0 Bft) 38,00 %
_ Max-Zeit 14:58 13:36 12:28 03:04 00:02 01:40 10:32 00:18 13:38 21:40 00:07
Maximum _ 6,3 C 11,7 C 2,8 C 96 % 1009,9 hPa 0,2 l/m 2 min 5 min 575 W/m 54,7 km/h
SW (7 Bft)
100,00 %
Durchschnitt _ 3,8 C 3,8 C 0,3 C 89 % 1005,7 hPa #0,8 l/m #3:20 h #2:17 h 155 W/m 13,5 km/h (3 Bft) 96,45 %
© 2023 W. Hausmann